M I D A S
Marine Information and Data Acquisition System
Tripno 724 of the Zeeleeuw from 2004-05-27 06:15:34 to 2004-05-27 13:42:19
Back to CruiseResearch ActivitiesStationsMapUnderway DataData graphs

EquipmentUnitsComment
TimeDGPSUTC
LatitudeDGPSDM.mWGS84
LongitudeDGPSDM.mWGS84
TemperatureSBE03/SBE38deg celciusITS90
ConductivitySBE21S/mITS90
SalinitySBE21 Practical Salinity Units
ChlorophylAChelsea fluorimeterg/lCalibrated in Aceton
Missing or incorrect values are displayed as -999
Sea surface data collected by the RV Zeeleeuw from 2004-05-27 06:15:34 to 2004-05-27 13:42:19
                                                                                    Next 1000 lines
Time Latitude Longitude Temperature Conductivity Salinity ChlorophylA
2004-05-27 06:15:44 51°13.597 2°56.096 20.469354 4.501339 31.842811 3.027913
2004-05-27 06:15:48 51°13.597 2°56.096 20.469153 4.501339 31.842811 3.027913
2004-05-27 06:15:53 51°13.597 2°56.096 20.469153 4.501339 31.842811 3.027913
2004-05-27 06:15:59 51°13.597 2°56.096 20.468952 4.501339 31.843329 3.027913
2004-05-27 06:16:04 51°13.597 2°56.096 20.469595 4.501233 31.842494 2.994204
2004-05-27 06:16:09 51°13.597 2°56.096 20.469635 4.501233 31.84353 2.994204
2004-05-27 06:16:14 51°13.598 2°56.096 20.469836 4.501233 31.84353 3.027913
2004-05-27 06:16:18 51°13.598 2°56.096 20.470117 4.501233 31.844048 3.027913
2004-05-27 06:16:24 51°13.598 2°56.096 20.470117 4.501233 31.844048 3.027913
2004-05-27 06:16:29 51°13.598 2°56.096 20.470278 4.501022 31.84238 3.061623
2004-05-27 06:16:32 51°13.598 2°56.096 20.47064 4.501023 31.842898 3.061623
2004-05-27 06:16:38 51°13.598 2°56.095 20.47072 4.501128 31.843732 2.994204
2004-05-27 06:16:44 51°13.598 2°56.095 20.471243 4.501023 31.843416 3.027913
2004-05-27 06:16:49 51°13.598 2°56.095 20.471564 4.500917 31.842582 3.027913
2004-05-27 06:16:53 51°13.598 2°56.095 20.471564 4.500917 31.842582 3.027913
2004-05-27 06:16:58 51°13.598 2°56.095 20.471725 4.501023 31.843934 2.994204
2004-05-27 06:17:03 51°13.598 2°56.095 20.472127 4.500917 31.8431 3.027913
2004-05-27 06:17:09 51°13.598 2°56.095 20.472569 4.500706 31.841949 3.061623
2004-05-27 06:17:14 51°13.598 2°56.095 20.472609 4.500812 31.843302 3.027913
2004-05-27 06:17:18 51°13.598 2°56.095 20.473212 4.500706 31.842467 3.027913
2004-05-27 06:17:24 51°13.597 2°56.095 20.473212 4.500706 31.842467 3.027913
2004-05-27 06:17:29 51°13.597 2°56.095 20.473614 4.500706 31.842985 3.027913
2004-05-27 06:17:32 51°13.597 2°56.095 20.473855 4.500706 31.842985 3.027913
2004-05-27 06:17:37 51°13.598 2°56.095 20.474297 4.500601 31.843187 3.061623
2004-05-27 06:17:44 51°13.598 2°56.095 20.474579 4.500601 31.842669 3.027913
2004-05-27 06:17:48 51°13.598 2°56.095 20.475021 4.500495 31.842353 3.027913
2004-05-27 06:17:54 51°13.597 2°56.095 20.475021 4.500495 31.842353 3.027913
2004-05-27 06:17:56 51°13.597 2°56.095 20.475503 4.500601 31.843706 2.994204
2004-05-27 06:18:02 51°13.597 2°56.095 20.475503 4.500495 31.842871 3.061623
2004-05-27 06:18:09 51°13.597 2°56.095 20.475825 4.50039 31.842555 3.027913
2004-05-27 06:18:13 51°13.597 2°56.095 20.475905 4.500284 31.841721 3.027913
2004-05-27 06:18:18 51°13.597 2°56.095 20.475905 4.50039 31.843073 3.061623
2004-05-27 06:18:24 51°13.597 2°56.095 20.475905 4.50039 31.843073 3.061623
2004-05-27 06:18:29 51°13.597 2°56.095 20.476227 4.500284 31.842757 3.027913
2004-05-27 06:18:33 51°13.597 2°56.095 20.476508 4.500179 31.842441 3.027913
2004-05-27 06:18:38 51°13.597 2°56.095 20.476588 4.500179 31.842441 3.027913
2004-05-27 06:18:44 51°13.597 2°56.095 20.47695 4.500179 31.842959 2.994204
2004-05-27 06:18:49 51°13.597 2°56.095 20.477031 4.500179 31.843477 3.027913
2004-05-27 06:18:54 51°13.597 2°56.095 20.477031 4.500179 31.843477 3.027913
2004-05-27 06:18:59 51°13.597 2°56.095 20.477352 4.499968 31.841808 3.027913
2004-05-27 06:19:04 51°13.597 2°56.096 20.478035 4.500179 31.844514 3.027913
2004-05-27 06:19:09 51°13.597 2°56.096 20.478317 4.499968 31.842326 3.061623
2004-05-27 06:19:14 51°13.597 2°56.096 20.479321 4.499968 31.842845 2.994204
2004-05-27 06:19:18 51°13.597 2°56.096 20.479603 4.499968 31.842845 3.027913
2004-05-27 06:19:24 51°13.597 2°56.096 20.479603 4.499968 31.842845 3.027913
2004-05-27 06:19:29 51°13.597 2°56.096 20.479844 4.499862 31.842528 3.027913
2004-05-27 06:19:34 51°13.597 2°56.096 20.480688 4.499862 31.843047 2.994204
2004-05-27 06:19:37 51°13.597 2°56.096 20.480527 4.499757 31.842212 3.027913
2004-05-27 06:19:44 51°13.597 2°56.096 20.480366 4.499651 31.841896 3.061623
2004-05-27 06:19:48 51°13.597 2°56.097 20.480608 4.499757 31.843249 3.061623
2004-05-27 06:19:53 51°13.597 2°56.097 20.480608 4.499757 31.843249 3.061623
2004-05-27 06:19:58 51°13.597 2°56.097 20.48121 4.499546 31.841579 3.027913
2004-05-27 06:20:04 51°13.597 2°56.097 20.481733 4.499546 31.842098 3.027913
2004-05-27 06:20:09 51°13.597 2°56.097 20.482416 4.499546 31.842616 3.027913
2004-05-27 06:20:13 51°13.597 2°56.097 20.482818 4.499546 31.842616 2.994204
2004-05-27 06:20:16 51°13.597 2°56.097 20.482738 4.499651 31.843969 3.061623
2004-05-27 06:20:24 51°13.596 2°56.096 20.482738 4.499651 31.843969 3.061623
2004-05-27 06:20:28 51°13.597 2°56.095 20.481974 4.499441 31.842818 3.061623
2004-05-27 06:20:33 51°13.597 2°56.094 20.481371 4.499441 31.842818 3.027913
2004-05-27 06:20:38 51°13.597 2°56.091 20.477272 4.499441 31.843336 3.061623
2004-05-27 06:20:44 51°13.598 2°56.085 20.473453 4.499335 31.84302 3.027913
2004-05-27 06:20:49 51°13.6 2°56.08 20.477232 4.499335 31.84302 3.027913
2004-05-27 06:20:54 51°13.601 2°56.073 20.477232 4.499335 31.84302 3.027913
2004-05-27 06:20:58 51°13.602 2°56.068 20.476588 4.499335 31.843539 3.027913
2004-05-27 06:21:04 51°13.605 2°56.058 20.468308 4.49923 31.843222 3.027913
2004-05-27 06:21:09 51°13.607 2°56.049 20.469635 4.499124 31.842388 3.027913
2004-05-27 06:21:14 51°13.609 2°56.04 20.473373 4.499124 31.842388 3.027913
2004-05-27 06:21:20 51°13.612 2°56.027 20.472087 4.499019 31.842071 3.061623
2004-05-27 06:21:24 51°13.614 2°56.018 20.472087 4.499019 31.842071 3.061623
2004-05-27 06:21:29 51°13.616 2°56.007 20.479603 4.499019 31.842071 3.061623
2004-05-27 06:21:34 51°13.619 2°55.995 20.484626 4.499019 31.84259 3.061623
2004-05-27 06:21:40 51°13.622 2°55.98 20.477794 4.499019 31.843108 2.994204
2004-05-27 06:21:44 51°13.624 2°55.969 20.486917 4.498913 31.841755 2.994204
2004-05-27 06:21:49 51°13.627 2°55.956 20.488002 4.498913 31.842792 3.061623
2004-05-27 06:21:54 51°13.631 2°55.943 20.488002 4.498913 31.842792 3.061623
2004-05-27 06:21:58 51°13.634 2°55.933 20.491337 4.498808 31.841957 3.027913
2004-05-27 06:22:04 51°13.639 2°55.918 20.486716 4.498808 31.842476 3.027913
2004-05-27 06:22:09 51°13.644 2°55.906 20.476146 4.498808 31.842994 3.027913
2004-05-27 06:22:14 51°13.648 2°55.894 20.482657 4.498808 31.842994 3.027913
2004-05-27 06:22:18 51°13.652 2°55.884 20.480929 4.498702 31.842678 3.027913
2004-05-27 06:22:24 51°13.658 2°55.87 20.480929 4.498702 31.842678 3.027913
2004-05-27 06:22:29 51°13.663 2°55.858 20.481894 4.498702 31.843196 3.061623
2004-05-27 06:22:34 51°13.668 2°55.847 20.490413 4.498702 31.843196 3.027913
2004-05-27 06:22:38 51°13.671 2°55.838 20.488444 4.498491 31.841527 3.061623
2004-05-27 06:22:44 51°13.676 2°55.825 20.479241 4.498491 31.842045 3.061623
2004-05-27 06:22:49 51°13.679 2°55.814 20.484868 4.498597 31.843398 3.061623
2004-05-27 06:22:52 51°13.681 2°55.808 20.484868 4.498597 31.843398 3.061623
2004-05-27 06:22:59 51°13.684 2°55.794 20.487841 4.498386 31.842247 3.027913
2004-05-27 06:23:04 51°13.686 2°55.784 20.489288 4.498386 31.842766 3.061623
2004-05-27 06:23:09 51°13.687 2°55.775 20.490654 4.498386 31.843284 3.061623
2004-05-27 06:23:13 51°13.688 2°55.768 20.493427 4.498386 31.843284 3.027913
2004-05-27 06:23:17 51°13.689 2°55.762 20.495356 4.49828 31.843486 2.994204
2004-05-27 06:23:24 51°13.691 2°55.752 20.495356 4.49828 31.843486 2.994204
2004-05-27 06:23:29 51°13.692 2°55.746 20.49636 4.49828 31.842968 3.061623
2004-05-27 06:23:34 51°13.692 2°55.74 20.497525 4.498175 31.842652 3.027913
2004-05-27 06:23:38 51°13.692 2°55.736 20.497525 4.49828 31.843486 3.027913
2004-05-27 06:23:44 51°13.693 2°55.732 20.497646 4.498175 31.842652 3.027913
2004-05-27 06:23:49 51°13.694 2°55.729 20.499213 4.498069 31.842335 3.027913
2004-05-27 06:23:54 51°13.694 2°55.727 20.499213 4.498069 31.842335 3.027913
2004-05-27 06:23:58 51°13.695 2°55.725 20.498972 4.49807 31.842854 3.027913
2004-05-27 06:24:04 51°13.695 2°55.724 20.499414 4.49807 31.842854 3.061623
2004-05-27 06:24:09 51°13.696 2°55.724 20.499052 4.497964 31.842019 3.027913
2004-05-27 06:24:14 51°13.697 2°55.724 20.499012 4.497964 31.842538 2.994204
2004-05-27 06:24:18 51°13.697 2°55.725 20.499213 4.497964 31.843056 3.061623
2004-05-27 06:24:22 51°13.698 2°55.726 20.499213 4.497964 31.843056 3.061623
2004-05-27 06:24:29 51°13.7 2°55.728 20.499012 4.497964 31.843056 2.994204
2004-05-27 06:24:33 51°13.701 2°55.73 20.499092 4.497859 31.843258 3.027913
2004-05-27 06:24:39 51°13.703 2°55.732 20.499173 4.497859 31.843777 3.095332
2004-05-27 06:24:44 51°13.705 2°55.735 20.499735 4.497753 31.842942 3.027913
2004-05-27 06:24:49 51°13.708 2°55.737 20.500579 4.497859 31.844296 3.027913
2004-05-27 06:24:53 51°13.71 2°55.739 20.500579 4.497859 31.844296 3.027913
2004-05-27 06:24:58 51°13.713 2°55.742 20.500659 4.497648 31.842626 3.061623
2004-05-27 06:25:03 51°13.716 2°55.744 20.501101 4.497753 31.843979 3.061623
2004-05-27 06:25:09 51°13.719 2°55.747 20.501503 4.497648 31.843144 3.027913
2004-05-27 06:25:14 51°13.723 2°55.749 20.501423 4.497648 31.843144 3.061623
2004-05-27 06:25:17 51°13.725 2°55.75 20.501021 4.497542 31.842828 3.061623
2004-05-27 06:25:24 51°13.729 2°55.752 20.501021 4.497542 31.842828 3.061623
2004-05-27 06:25:28 51°13.731 2°55.753 20.498289 4.497542 31.842828 2.994204
2004-05-27 06:25:34 51°13.733 2°55.754 20.499494 4.497542 31.842828 3.061623
2004-05-27 06:25:38 51°13.734 2°55.754 20.501302 4.497437 31.842512 2.994204
2004-05-27 06:25:42 51°13.735 2°55.755 20.502467 4.497437 31.84303 2.994204
2004-05-27 06:25:49 51°13.735 2°55.755 20.492021 4.497331 31.842714 3.027913
2004-05-27 06:25:53 51°13.734 2°55.756 20.492021 4.497331 31.842714 3.027913
2004-05-27 06:25:58 51°13.733 2°55.756 20.495316 4.497331 31.842714 3.061623
2004-05-27 06:26:04 51°13.73 2°55.757 20.497284 4.497331 31.842714 3.027913
2004-05-27 06:26:09 51°13.728 2°55.758 20.490735 4.49712 31.841044 3.027913
2004-05-27 06:26:14 51°13.725 2°55.758 20.500338 4.497226 31.842398 3.027913
2004-05-27 06:26:19 51°13.722 2°55.759 20.154882 4.497226 31.841879 2.960494
2004-05-27 06:26:24 51°13.72 2°55.76 20.154882 4.497226 31.841879 2.960494
2004-05-27 06:26:29 51°13.719 2°55.76 19.731237 3.414838 23.659969 11.151879
2004-05-27 06:26:34 51°13.719 2°55.761 18.045545 4.257184 30.086844 4.91564
2004-05-27 06:26:38 51°13.719 2°55.761 16.826962 4.360383 28.674533 3.263879
2004-05-27 06:26:44 51°13.722 2°55.759 16.224202 4.669437 30.670292 6.196597
2004-05-27 06:26:49 51°13.725 2°55.757 16.012968 4.182509 28.68933 4.848221
2004-05-27 06:26:54 51°13.73 2°55.753 16.012968 4.182509 28.68933 4.848221
2004-05-27 06:26:58 51°13.733 2°55.748 15.854715 3.990118 28.442227 7.71352
2004-05-27 06:27:04 51°13.74 2°55.74 15.717017 3.925937 28.912209 10.376563
2004-05-27 06:27:09 51°13.746 2°55.731 15.714692 3.795038 28.58149 12.129452
2004-05-27 06:27:12 51°13.75 2°55.726 15.668356 3.713158 28.340696 13.107024
2004-05-27 06:27:18 51°13.758 2°55.714 15.610392 3.716535 28.658838 13.814922
2004-05-27 06:27:24 51°13.768 2°55.7 15.610392 3.716535 28.658838 13.814922
2004-05-27 06:27:29 51°13.776 2°55.689 15.538309 3.724758 28.890532 14.219435
2004-05-27 06:27:34 51°13.785 2°55.677 15.620221 3.691036 28.695209 14.421691
2004-05-27 06:27:37 51°13.791 2°55.67 15.516855 3.631711 28.268658 14.185725
2004-05-27 06:27:44 51°13.804 2°55.653 15.546293 3.644778 28.445513 14.387982
2004-05-27 06:27:49 51°13.813 2°55.641 15.502779 3.597888 28.074533 14.387982
2004-05-27 06:27:53 51°13.821 2°55.631 15.502779 3.597888 28.074533 14.387982
2004-05-27 06:27:58 51°13.831 2°55.62 15.473624 3.614853 28.250661 14.4554
2004-05-27 06:28:04 51°13.843 2°55.607 15.44852 3.594728 28.09897 14.4554
2004-05-27 06:28:09 51°13.853 2°55.596 15.473624 3.540467 27.65399 14.387982
2004-05-27 06:28:14 51°13.863 2°55.586 15.518927 3.589039 28.093592 14.253144
2004-05-27 06:28:18 51°13.871 2°55.578 15.461743 3.567756 27.9326 14.118306
2004-05-27 06:28:24 51°13.884 2°55.567 15.461743 3.567756 27.9326 14.118306
2004-05-27 06:28:28 51°13.892 2°55.56 15.445754 3.543418 27.731338 13.91605
2004-05-27 06:28:32 51°13.9 2°55.554 15.43806 3.597259 28.212389 13.511537
2004-05-27 06:28:37 51°13.91 2°55.547 15.44731 3.579979 28.061029 13.275571
2004-05-27 06:28:44 51°13.924 2°55.538 15.390843 3.41563 26.64611 13.174443
2004-05-27 06:28:49 51°13.934 2°55.532 15.420163 3.537202 27.714088 12.972187
2004-05-27 06:28:54 51°13.943 2°55.527 15.420163 3.537202 27.714088 12.972187
2004-05-27 06:28:56 51°13.947 2°55.525 15.390021 3.583035 28.124316 13.005896
2004-05-27 06:29:04 51°13.962 2°55.518 15.37302 3.557537 27.902954 13.107024
2004-05-27 06:29:09 51°13.971 2°55.513 15.362463 3.597892 28.26764 12.76993
2004-05-27 06:29:14 51°13.98 2°55.51 15.352423 3.61159 28.402694 12.668802
2004-05-27 06:29:17 51°13.985 2°55.507 15.357616 3.506755 27.494543 12.668802
2004-05-27 06:29:24 51°13.998 2°55.502 15.357616 3.506755 27.494543 12.668802
2004-05-27 06:29:29 51°14.006 2°55.499 15.346017 3.540785 27.802075 12.432836
2004-05-27 06:29:33 51°14.013 2°55.496 15.336192 2.400258 18.124763 12.196871
2004-05-27 06:29:38 51°14.022 2°55.493 15.32355 2.365251 17.840552 11.994614
2004-05-27 06:29:44 51°14.032 2°55.49 15.331733 2.516022 19.094726 11.556392
2004-05-27 06:29:49 51°14.04 2°55.487 15.314933 3.634035 28.648667 11.623811
2004-05-27 06:29:54 51°14.048 2°55.483 15.314933 3.634035 28.648667 11.623811
2004-05-27 06:29:58 51°14.054 2°55.48 15.29839 3.163187 24.574481 11.151879
2004-05-27 06:30:04 51°14.065 2°55.474 15.297957 3.632771 28.653404 11.11817
2004-05-27 06:30:08 51°14.072 2°55.469 15.306662 3.561753 28.036324 11.017042
2004-05-27 06:30:12 51°14.08 2°55.464 15.303414 3.619072 28.541117 10.781076
2004-05-27 06:30:17 51°14.091 2°55.455 15.298477 3.577768 28.190128 10.814785
2004-05-27 06:30:24 51°14.107 2°55.443 15.298477 3.577768 28.190128 10.814785
2004-05-27 06:30:29 51°14.12 2°55.434 15.304237 3.571973 28.144843 10.713657
2004-05-27 06:30:34 51°14.133 2°55.425 15.305103 3.725084 29.488375 10.679947
2004-05-27 06:30:38 51°14.144 2°55.417 15.288211 3.723924 29.480426 10.54511
2004-05-27 06:30:44 51°14.16 2°55.403 15.282189 3.720552 29.454132 10.477691
2004-05-27 06:30:49 51°14.174 2°55.389 15.263384 3.707906 29.34125 10.376563
2004-05-27 06:30:54 51°14.187 2°55.374 15.263384 3.707906 29.34125 10.376563
2004-05-27 06:30:58 51°14.198 2°55.361 15.256493 3.708327 29.345515 10.309144
2004-05-27 06:31:04 51°14.213 2°55.339 15.25736 3.708749 29.352577 10.275435
2004-05-27 06:31:09 51°14.226 2°55.32 15.241366 3.710435 29.373561 10.275435
2004-05-27 06:31:13 51°14.236 2°55.305 15.249689 3.720131 29.466711 10.342853
2004-05-27 06:31:18 51°14.249 2°55.286 15.253676 3.733515 29.593563 10.410272
2004-05-27 06:31:20 51°14.254 2°55.278 15.253676 3.733515 29.593563 10.410272
2004-05-27 06:31:29 51°14.276 2°55.24 15.239719 3.743633 29.691761 10.54511
2004-05-27 06:31:34 51°14.287 2°55.219 15.236338 3.750588 29.761035 10.679947
2004-05-27 06:31:38 51°14.296 2°55.201 15.23443 3.753645 29.788561 10.679947
2004-05-27 06:31:44 51°14.309 2°55.174 15.23365 3.761338 29.857005 10.814785
2004-05-27 06:31:49 51°14.321 2°55.151 15.230225 3.760706 29.854276 10.848494
2004-05-27 06:31:53 51°14.33 2°55.134 15.230225 3.760706 29.854276 10.848494
2004-05-27 06:31:58 51°14.342 2°55.111 15.222593 3.762076 29.869219 10.781076
2004-05-27 06:32:02 51°14.352 2°55.093 15.223851 3.760706 29.86169 10.781076
2004-05-27 06:32:08 51°14.367 2°55.065 15.214701 3.757017 29.829703 10.578819
2004-05-27 06:32:13 51°14.378 2°55.042 15.196225 3.755753 29.82139 10.477691
2004-05-27 06:32:18 51°14.39 2°55.019 15.197266 3.75101 29.782951 10.5114
2004-05-27 06:32:22 51°14.401 2°55.002 15.197266 3.75101 29.782951 10.5114
2004-05-27 06:32:28 51°14.418 2°54.978 15.191887 3.748059 29.760891 10.342853
2004-05-27 06:32:33 51°14.434 2°54.961 15.194706 3.750062 29.78084 10.342853
2004-05-27 06:32:38 51°14.449 2°54.945 15.164074 3.754488 29.827325 10.477691
2004-05-27 06:32:42 51°14.462 2°54.932 15.144021 3.755542 29.843478 10.376563
2004-05-27 06:32:48 51°14.48 2°54.912 15.100031 3.763025 29.913016 10.477691
2004-05-27 06:32:53 51°14.496 2°54.895 15.100031 3.763025 29.913016 10.477691
2004-05-27 06:32:58 51°14.511 2°54.879 15.050491 3.706537 29.416678 10.376563
2004-05-27 06:33:03 51°14.527 2°54.862 15.01988 3.636777 28.806903 10.477691
2004-05-27 06:33:08 51°14.542 2°54.845 14.997261 3.714758 29.507223 10.410272
2004-05-27 06:33:13 51°14.557 2°54.827 14.991692 3.728985 29.656091 10.140597
2004-05-27 06:33:18 51°14.572 2°54.81 14.950564 3.760708 29.965905 10.174306
2004-05-27 06:33:24 51°14.59 2°54.789 14.950564 3.760708 29.965905 10.174306
2004-05-27 06:33:28 51°14.602 2°54.775 14.920474 3.750802 29.903982 9.702375
2004-05-27 06:33:33 51°14.616 2°54.758 14.911632 3.782525 30.209665 9.567537
2004-05-27 06:33:38 51°14.631 2°54.739 14.8732 3.807821 30.460193 9.297862
2004-05-27 06:33:42 51°14.643 2°54.725 14.879259 3.805397 30.456793 9.061896
2004-05-27 06:33:49 51°14.664 2°54.701 14.868798 3.790009 30.340295 8.927059
2004-05-27 06:33:53 51°14.676 2°54.687 14.868798 3.790009 30.340295 8.927059
2004-05-27 06:33:58 51°14.691 2°54.67 14.852233 3.746904 29.974201 8.724802
2004-05-27 06:34:02 51°14.703 2°54.656 14.8453 3.836912 30.793283 8.387708
2004-05-27 06:34:08 51°14.721 2°54.635 14.839152 3.832591 30.763006 8.219161
2004-05-27 06:34:13 51°14.736 2°54.617 14.829819 3.804766 30.522293 8.016905
2004-05-27 06:34:18 51°14.751 2°54.599 14.835663 3.767983 30.202482 7.882067
2004-05-27 06:34:24 51°14.769 2°54.578 14.835663 3.767983 30.202482 7.882067
2004-05-27 06:34:28 51°14.781 2°54.564 14.834529 3.833013 30.795906 7.578683
2004-05-27 06:34:33 51°14.796 2°54.546 14.810932 3.8347 30.819919 7.612392
2004-05-27 06:34:38 51°14.811 2°54.528 14.821663 3.713497 29.743859 7.477554
2004-05-27 06:34:43 51°14.826 2°54.511 14.810234 3.808139 30.593747 7.477554
2004-05-27 06:34:49 51°14.845 2°54.489 14.813811 3.8308 30.798144 7.410136
2004-05-27 06:34:53 51°14.857 2°54.476 14.813811 3.8308 30.798144 7.410136
2004-05-27 06:34:58 51°14.872 2°54.459 14.797799 3.846505 30.944068 7.443845
2004-05-27 06:35:04 51°14.891 2°54.438 14.785188 3.777785 30.333209 7.309007
2004-05-27 06:35:08 51°14.903 2°54.425 14.791298 3.805188 30.583346 7.073042
2004-05-27 06:35:13 51°14.918 2°54.408 14.78353 3.826374 30.777599 7.005623
2004-05-27 06:35:18 51°14.934 2°54.391 14.794047 3.849246 30.988392 6.904494
2004-05-27 06:35:24 51°14.952 2°54.37 14.794047 3.849246 30.988392 6.904494
2004-05-27 06:35:28 51°14.964 2°54.356 14.79217 3.845979 30.966913 6.837076
2004-05-27 06:35:33 51°14.979 2°54.338 14.797188 3.827639 30.805616 6.803366
2004-05-27 06:35:38 51°14.994 2°54.32 14.804999 3.837757 30.898042 6.735947
2004-05-27 06:35:42 51°15.005 2°54.306 14.796883 3.847244 30.984849 6.702238
2004-05-27 06:35:49 51°15.026 2°54.28 14.799545 3.717186 29.819343 6.668529
2004-05-27 06:35:53 51°15.038 2°54.266 14.799545 3.717186 29.819343 6.668529
2004-05-27 06:35:58 51°15.053 2°54.247 14.803777 3.832066 30.847054 6.702238
2004-05-27 06:36:00 51°15.059 2°54.24 14.794178 3.820893 30.746408 6.60111
2004-05-27 06:36:08 51°15.083 2°54.211 14.802643 3.855992 31.06027 6.5674
2004-05-27 06:36:12 51°15.095 2°54.196 14.787108 3.854622 31.046783 6.634819
2004-05-27 06:36:18 51°15.113 2°54.174 14.768558 3.830274 30.826228 6.634819
2004-05-27 06:36:22 51°15.125 2°54.16 14.768558 3.830274 30.826228 6.634819
2004-05-27 06:36:29 51°15.146 2°54.134 14.764542 3.852725 31.029173 6.634819
2004-05-27 06:36:33 51°15.158 2°54.12 14.763582 3.851987 31.023762 6.60111
2004-05-27 06:36:38 51°15.173 2°54.102 14.755418 3.836492 30.889702 6.5674
2004-05-27 06:36:44 51°15.192 2°54.08 14.756116 3.831328 30.851203 6.533691
2004-05-27 06:36:48 51°15.204 2°54.065 14.76834 3.762714 30.244323 6.466272
2004-05-27 06:36:53 51°15.219 2°54.047 14.76834 3.762714 30.244323 6.466272
2004-05-27 06:36:58 51°15.235 2°54.03 14.754064 3.84893 31.020401 6.499982
2004-05-27 06:37:02 51°15.248 2°54.018 14.757033 3.862001 31.142502 6.331435
2004-05-27 06:37:08 51°15.267 2°54 14.749086 3.813726 30.710805 6.365144
2004-05-27 06:37:13 51°15.285 2°53.986 14.744676 3.78569 30.460969 6.095469
2004-05-27 06:37:18 51°15.302 2°53.973 14.732055 3.837758 30.927401 6.061759
2004-05-27 06:37:21 51°15.312 2°53.965 14.732055 3.837758 30.927401 6.061759
2004-05-27 06:37:28 51°15.336 2°53.948 14.724193 3.805611 30.64227 5.960631
2004-05-27 06:37:33 51°15.354 2°53.935 14.719912 3.825004 30.817839 5.859503
2004-05-27 06:37:38 51°15.371 2°53.922 14.718514 3.811935 30.70428 5.792084
2004-05-27 06:37:42 51°15.385 2°53.913 14.704533 3.849141 31.042155 5.825794
2004-05-27 06:37:48 51°15.406 2°53.898 14.699639 3.787904 30.500292 5.758375
2004-05-27 06:37:54 51°15.427 2°53.883 14.699639 3.787904 30.500292 5.758375
2004-05-27 06:37:58 51°15.441 2°53.872 14.702217 3.772938 30.371611 5.792084
2004-05-27 06:38:02 51°15.455 2°53.862 14.693259 3.856415 31.123752 5.758375
2004-05-27 06:38:09 51°15.479 2°53.844 14.684212 3.849142 31.064458 5.792084
2004-05-27 06:38:13 51°15.493 2°53.834 14.67818 3.845874 31.042344 5.792084
2004-05-27 06:38:18 51°15.511 2°53.822 14.679929 3.829642 30.899577 5.859503
2004-05-27 06:38:21 51°15.521 2°53.814 14.679929 3.829642 30.899577 5.859503
2004-05-27 06:38:29 51°15.548 2°53.793 14.661787 3.859788 31.172213 5.859503
2004-05-27 06:38:33 51°15.562 2°53.782 14.662442 3.843661 31.032709 5.859503
2004-05-27 06:38:38 51°15.58 2°53.769 14.662442 3.848615 31.083268 5.960631
2004-05-27 06:38:42 51°15.594 2°53.758 14.656452 3.853569 31.133856 6.02805
2004-05-27 06:38:48 51°15.614 2°53.743 14.662705 3.855994 31.161111 5.994341
2004-05-27 06:38:53 51°15.631 2°53.73 14.662705 3.855994 31.161111 5.994341
2004-05-27 06:38:58 51°15.649 2°53.717 14.663448 3.817733 30.822609 5.994341
2004-05-27 06:39:02 51°15.663 2°53.707 14.652736 3.851356 31.12666 6.095469
2004-05-27 06:39:08 51°15.684 2°53.691 14.647925 3.837548 31.003692 6.129178
2004-05-27 06:39:13 51°15.701 2°53.678 14.649281 3.856521 31.177372 6.196597
2004-05-27 06:39:18 51°15.718 2°53.665 14.647269 3.831224 30.951054 6.264016
2004-05-27 06:39:24 51°15.739 2°53.649 14.647269 3.831224 30.951054 6.264016
2004-05-27 06:39:28 51°15.753 2°53.638 14.651118 3.820262 30.853733 6.398853
2004-05-27 06:39:33 51°15.771 2°53.625 14.649631 3.853675 31.157825 6.432563
2004-05-27 06:39:38 51°15.788 2°53.612 14.656715 3.830381 30.951301 6.466272
2004-05-27 06:39:42 51°15.802 2°53.602 14.648013 3.847245 31.104205 6.499982
2004-05-27 06:39:48 51°15.823 2°53.586 14.646176 3.852199 31.149394 6.499982
2004-05-27 06:39:53 51°15.841 2°53.573 14.646176 3.852199 31.149394 6.499982
2004-05-27 06:39:58 51°15.858 2°53.56 14.648625 3.859683 31.215546 6.499982
2004-05-27 06:40:02 51°15.872 2°53.55 14.644427 3.870856 31.31433 6.499982
2004-05-27 06:40:08 51°15.893 2°53.534 14.646832 3.85357 31.159908 6.533691
2004-05-27 06:40:13 51°15.91 2°53.521 14.635548 3.838497 31.025498 6.5674
2004-05-27 06:40:18 51°15.928 2°53.507 14.63358 3.857681 31.199338 6.5674
2004-05-27 06:40:22 51°15.942 2°53.497 14.63358 3.857681 31.199338 6.5674
2004-05-27 06:40:29 51°15.966 2°53.478 14.627369 3.860421 31.225835 6.5674
2004-05-27 06:40:32 51°15.976 2°53.47 14.63463 3.855678 31.184345 6.5674
2004-05-27 06:40:38 51°15.997 2°53.454 14.642284 3.807509 30.753519 6.60111
2004-05-27 06:40:43 51°16.015 2°53.44 14.653085 3.861264 31.239509 6.634819
2004-05-27 06:40:48 51°16.032 2°53.427 14.662574 3.87054 31.327334 6.634819
2004-05-27 06:40:53 51°16.05 2°53.413 14.662574 3.87054 31.327334 6.634819
2004-05-27 06:40:58 51°16.067 2°53.4 14.675951 3.859789 31.231692 6.60111
2004-05-27 06:41:02 51°16.081 2°53.389 14.680541 3.850829 31.14858 6.634819
2004-05-27 06:41:08 51°16.102 2°53.373 14.687709 3.864532 31.266504 6.735947
2004-05-27 06:41:12 51°16.116 2°53.362 14.687184 3.866429 31.277505 6.803366
2004-05-27 06:41:18 51°16.137 2°53.346 14.695881 3.8405 31.037472 6.904494
2004-05-27 06:41:23 51°16.155 2°53.333 14.695881 3.8405 31.037472 6.904494
2004-05-27 06:41:28 51°16.173 2°53.322 14.697367 3.869486 31.291027 6.971913
2004-05-27 06:41:33 51°16.191 2°53.312 14.701999 3.862424 31.221991 7.073042
2004-05-27 06:41:38 51°16.21 2°53.303 14.698984 3.866218 31.251885 7.106751
2004-05-27 06:41:42 51°16.225 2°53.297 14.700426 3.866113 31.247291 7.309007
2004-05-27 06:41:48 51°16.248 2°53.288 14.698328 3.822581 30.851766 7.275298
2004-05-27 06:41:53 51°16.267 2°53.282 14.698328 3.822581 30.851766 7.275298
2004-05-27 06:41:58 51°16.286 2°53.276 14.703528 3.868853 31.265871 7.342717
2004-05-27 06:42:03 51°16.305 2°53.27 14.698459 3.868958 31.264996 7.410136
2004-05-27 06:42:08 51°16.324 2°53.264 14.700863 3.844821 31.046747 7.342717
2004-05-27 06:42:13 51°16.343 2°53.258 14.694439 3.846718 31.063798 7.309007
2004-05-27 06:42:18 51°16.362 2°53.251 14.689326 3.727094 29.991305 7.410136
2004-05-27 06:42:22 51°16.377 2°53.246 14.689326 3.727094 29.991305 7.410136
2004-05-27 06:42:28 51°16.4 2°53.239 14.689064 3.832067 30.933362 7.342717
2004-05-27 06:42:32 51°16.415 2°53.234 14.688976 3.877707 31.344326 7.275298
2004-05-27 06:42:38 51°16.438 2°53.226 14.686572 3.881713 31.379767 7.275298
2004-05-27 06:42:44 51°16.461 2°53.219 14.67971 3.799498 30.643985 7.275298
2004-05-27 06:42:49 51°16.48 2°53.213 14.678443 3.860315 31.193316 7.241589
2004-05-27 06:42:52 51°16.492 2°53.209 14.678443 3.860315 31.193316 7.241589
2004-05-27 06:42:58 51°16.515 2°53.202 14.675208 3.871805 31.297902 7.241589
2004-05-27 06:43:03 51°16.534 2°53.196 14.67088 3.873491 31.314298 7.275298
2004-05-27 06:43:08 51°16.553 2°53.19 14.662923 3.848299 31.090094 7.275298
2004-05-27 06:43:13 51°16.572 2°53.183 14.65995 3.859578 31.194563 7.241589
2004-05-27 06:43:18 51°16.592 2°53.176 14.661699 3.857048 31.173624 7.17417
2004-05-27 06:43:24 51°16.615 2°53.169 14.661699 3.857048 31.173624 7.17417
2004-05-27 06:43:28 51°16.63 2°53.165 14.656846 3.867167 31.267718 7.17417
2004-05-27 06:43:32 51°16.646 2°53.162 14.652648 3.852621 31.140462 7.14046
2004-05-27 06:43:38 51°16.669 2°53.157 14.646482 3.853675 31.154794 7.14046
2004-05-27 06:43:44 51°16.692 2°53.152 14.639616 3.874651 31.345458 7.106751
2004-05-27 06:43:48 51°16.708 2°53.15 14.635461 3.866745 31.277309 7.106751
2004-05-27 06:43:53 51°16.727 2°53.146 14.635461 3.866745 31.277309 7.106751
2004-05-27 06:43:58 51°16.747 2°53.142 14.631262 3.875283 31.355426 7.039332
2004-05-27 06:44:01 51°16.758 2°53.14 14.623869 3.868327 31.29581 7.073042
2004-05-27 06:44:08 51°16.786 2°53.134 14.621026 3.719085 29.960427 6.971913
2004-05-27 06:44:13 51°16.805 2°53.13 14.610788 3.852937 31.166954 6.870785
2004-05-27 06:44:18 51°16.824 2°53.126 14.613938 3.805191 30.742258 6.870785
2004-05-27 06:44:20 51°16.832 2°53.124 14.613938 3.805191 30.742258 6.870785
2004-05-27 06:44:28 51°16.863 2°53.117 14.613063 3.86274 31.264974 6.837076
2004-05-27 06:44:32 51°16.878 2°53.114 14.604924 3.862635 31.267679 6.837076
2004-05-27 06:44:36 51°16.893 2°53.11 14.599804 3.878973 31.418018 6.837076
2004-05-27 06:44:43 51°16.92 2°53.104 14.592802 3.874019 31.377012 6.803366
2004-05-27 06:44:49 51°16.943 2°53.098 14.585143 3.85473 31.203138 6.837076
2004-05-27 06:44:53 51°16.959 2°53.095 14.585143 3.85473 31.203138 6.837076
2004-05-27 06:44:58 51°16.978 2°53.091 14.578445 3.789697 30.620343 6.837076
2004-05-27 06:45:04 51°17.002 2°53.087 14.579583 3.848195 31.153975 6.803366
2004-05-27 06:45:08 51°17.018 2°53.086 14.574724 3.854203 31.212378 6.735947
2004-05-27 06:45:13 51°17.037 2°53.085 14.576388 3.864533 31.309176 6.735947
2004-05-27 06:45:18 51°17.057 2°53.085 14.568245 3.869487 31.358144 6.668529
2004-05-27 06:45:22 51°17.073 2°53.085 14.568245 3.869487 31.358144 6.668529
2004-05-27 06:45:28 51°17.097 2°53.086 14.562159 3.819526 30.911457 6.668529
2004-05-27 06:45:33 51°17.118 2°53.088 14.558831 3.801924 30.756613 6.668529
2004-05-27 06:45:38 51°17.138 2°53.092 14.56067 3.849038 31.183457 6.60111
2004-05-27 06:45:43 51°17.158 2°53.097 14.564873 3.802978 30.769699 6.668529
2004-05-27 06:45:48 51°17.178 2°53.106 14.55743 3.806667 30.808313 6.702238
2004-05-27 06:45:53 51°17.197 2°53.116 14.55743 3.806667 30.808313 6.702238
2004-05-27 06:45:58 51°17.216 2°53.128 14.552437 3.850936 31.209699 6.702238
2004-05-27 06:46:02 51°17.231 2°53.138 14.554671 3.846298 31.170299 6.735947
2004-05-27 06:46:08 51°17.253 2°53.154 14.539298 3.820264 30.933786 6.735947
2004-05-27 06:46:13 51°17.271 2°53.169 14.535926 3.837655 31.091746 6.803366
2004-05-27 06:46:16 51°17.282 2°53.177 14.533692 3.857893 31.277958 6.837076
2004-05-27 06:46:22 51°17.304 2°53.195 14.533692 3.857893 31.277958 6.837076
2004-05-27 06:46:28 51°17.326 2°53.213 14.533779 3.851568 31.223935 6.870785
2004-05-27 06:46:32 51°17.34 2°53.225 14.527734 3.820053 30.944567 6.870785
2004-05-27 06:46:38 51°17.362 2°53.242 14.528829 3.851779 31.234984 6.938204
2004-05-27 06:46:43 51°17.381 2°53.257 14.526726 3.855258 31.270047 6.938204
2004-05-27 06:46:49 51°17.403 2°53.274 14.524843 3.857787 31.295334 6.971913
2004-05-27 06:46:52 51°17.414 2°53.283 14.524843 3.857787 31.295334 6.971913
2004-05-27 06:46:58 51°17.436 2°53.3 14.521162 3.815521 30.916998 7.039332
2004-05-27 06:47:02 51°17.451 2°53.311 14.517 3.850093 31.23196 7.039332
2004-05-27 06:47:08 51°17.473 2°53.328 14.515685 3.819842 30.960195 7.073042
2004-05-27 06:47:13 51°17.491 2°53.342 14.515291 3.864428 31.363274 7.073042
2004-05-27 06:47:18 51°17.51 2°53.356 14.51126 3.867274 31.392057 7.207879
2004-05-27 06:47:22 51°17.524 2°53.367 14.51126 3.867274 31.392057 7.207879
2004-05-27 06:47:28 51°17.547 2°53.383 14.516912 3.856523 31.29675 7.207879
2004-05-27 06:47:33 51°17.565 2°53.397 14.518052 3.848196 31.22398 7.275298
2004-05-27 06:47:38 51°17.584 2°53.411 14.515861 3.854626 31.283279 7.241589
2004-05-27 06:47:41 51°17.595 2°53.419 14.511172 3.859685 31.330217 7.309007
2004-05-27 06:47:48 51°17.621 2°53.439 14.517219 3.867801 31.405412 7.342717
2004-05-27 06:47:52 51°17.636 2°53.45 14.517219 3.867801 31.405412 7.342717
2004-05-27 06:47:58 51°17.658 2°53.467 14.516387 3.861582 31.348588 7.443845
2004-05-27 06:48:02 51°17.672 2°53.477 14.516606 3.875602 31.474706 7.544973
2004-05-27 06:48:08 51°17.695 2°53.494 14.520899 3.869382 31.419092 7.612392
2004-05-27 06:48:12 51°17.709 2°53.505 14.522827 3.855153 31.289875 7.612392
2004-05-27 06:48:18 51°17.732 2°53.521 14.524185 3.856523 31.302256 7.612392
2004-05-27 06:48:23 51°17.75 2°53.535 14.524185 3.856523 31.302256 7.612392
2004-05-27 06:48:28 51°17.769 2°53.549 14.526069 3.725937 30.125535 7.646101
2004-05-27 06:48:33 51°17.787 2°53.562 14.525719 3.870226 31.424872 7.679811
2004-05-27 06:48:38 51°17.806 2°53.576 14.523966 3.873072 31.449987 7.71352
2004-05-27 06:48:43 51°17.824 2°53.589 14.524799 3.861161 31.340489 7.71352
2004-05-27 06:48:48 51°17.843 2°53.603 14.524448 3.870436 31.422479 7.679811
2004-05-27 06:48:53 51°17.861 2°53.618 14.524448 3.870436 31.422479 7.679811
2004-05-27 06:48:58 51°17.88 2°53.632 14.53229 3.821951 30.983444 7.71352
2004-05-27 06:49:03 51°17.898 2°53.647 14.521119 3.871069 31.427581 7.74723
2004-05-27 06:49:08 51°17.915 2°53.662 14.522521 3.87908 31.500005 7.71352
2004-05-27 06:49:13 51°17.933 2°53.677 14.518227 3.875918 31.471414 7.74723
2004-05-27 06:49:18 51°17.951 2°53.692 14.521031 3.837866 31.126451 7.74723
2004-05-27 06:49:21 51°17.962 2°53.7 14.521031 3.837866 31.126451 7.74723
2004-05-27 06:49:28 51°17.988 2°53.721 14.515817 3.872545 31.440306 7.780939
2004-05-27 06:49:33 51°18.005 2°53.736 14.511085 3.882242 31.530448 7.780939
2004-05-27 06:49:36 51°18.016 2°53.745 14.510909 3.872755 31.44467 7.814648
2004-05-27 06:49:43 51°18.042 2°53.767 14.507141 3.88045 31.515475 7.848358
2004-05-27 06:49:48 51°18.06 2°53.782 14.507141 3.861372 31.345457 7.882067
2004-05-27 06:49:53 51°18.078 2°53.798 14.507141 3.861372 31.345457 7.882067
2004-05-27 06:49:55 51°18.085 2°53.805 14.506615 3.867064 31.398742 7.915777
2004-05-27 06:50:03 51°18.112 2°53.833 14.511742 3.742588 30.278777 7.949486
2004-05-27 06:50:08 51°18.129 2°53.85 14.50885 3.869593 31.425298 7.949486
2004-05-27 06:50:13 51°18.146 2°53.869 14.507448 3.859474 31.335049 8.016905
2004-05-27 06:50:18 51°18.163 2°53.888 14.503635 3.855258 31.298781 8.016905
2004-05-27 06:50:24 51°18.183 2°53.911 14.503635 3.855258 31.298781 8.016905
2004-05-27 06:50:28 51°18.196 2°53.926 14.500041 3.819421 30.973941 8.016905
2004-05-27 06:50:33 51°18.212 2°53.946 14.501663 3.857999 31.322937 8.050614
2004-05-27 06:50:38 51°18.228 2°53.967 14.497894 3.72952 30.16481 8.050614
2004-05-27 06:50:44 51°18.246 2°53.992 14.494387 3.867696 31.413057 8.084324
2004-05-27 06:50:46 51°18.252 2°54.001 14.495483 3.867696 31.414285 8.151742
2004-05-27 06:50:53 51°18.274 2°54.031 14.495483 3.867696 31.414285 8.151742
2004-05-27 06:50:56 51°18.282 2°54.045 14.502233 3.873177 31.465087 8.118033
2004-05-27 06:51:03 51°18.303 2°54.076 14.490706 3.869488 31.432949 8.118033
2004-05-27 06:51:08 51°18.318 2°54.098 14.492985 3.866431 31.406533 8.118033
2004-05-27 06:51:13 51°18.333 2°54.121 14.491188 3.844823 31.21304 8.118033
2004-05-27 06:51:15 51°18.339 2°54.129 14.4879 3.842399 31.191136 8.151742
2004-05-27 06:51:23 51°18.363 2°54.165 14.4879 3.842399 31.191136 8.151742
2004-05-27 06:51:28 51°18.378 2°54.187 14.48733 3.875075 31.487792 8.252871
2004-05-27 06:51:33 51°18.393 2°54.209 14.491582 3.849145 31.253927 8.185452
2004-05-27 06:51:38 51°18.408 2°54.231 14.491056 3.871175 31.455585 8.252871
2004-05-27 06:51:42 51°18.42 2°54.248 14.493423 3.835969 31.137924 8.320289
2004-05-27 06:51:49 51°18.44 2°54.279 14.496842 3.863691 31.390345 8.28658
2004-05-27 06:51:52 51°18.449 2°54.293 14.496842 3.863691 31.390345 8.28658
2004-05-27 06:51:58 51°18.467 2°54.319 14.491494 3.843875 31.211794 8.252871
2004-05-27 06:52:04 51°18.486 2°54.345 14.48733 3.804771 30.858068 8.28658
2004-05-27 06:52:09 51°18.501 2°54.367 14.486015 3.860423 31.359565 8.320289
2004-05-27 06:52:12 51°18.51 2°54.38 14.48847 3.735844 30.235846 8.455127
2004-05-27 06:52:18 51°18.528 2°54.406 14.489654 3.837129 31.149617 8.488836
2004-05-27 06:52:24 51°18.546 2°54.432 14.489654 3.837129 31.149617 8.488836
2004-05-27 06:52:28 51°18.558 2°54.45 14.489171 3.861899 31.374138 8.556255
2004-05-27 06:52:33 51°18.573 2°54.472 14.492809 3.867064 31.4227 8.657383
2004-05-27 06:52:38 51°18.588 2°54.494 14.490136 3.848091 31.251124 8.657383
2004-05-27 06:52:44 51°18.607 2°54.52 14.491363 3.829962 31.085479 8.691093
2004-05-27 06:52:48 51°18.619 2°54.538 14.485796 3.863585 31.389392 8.758512
2004-05-27 06:52:53 51°18.634 2°54.559 14.485796 3.863585 31.389392 8.758512
2004-05-27 06:52:58 51°18.65 2°54.581 14.484525 3.848829 31.255348 8.792221
2004-05-27 06:53:01 51°18.659 2°54.594 14.487155 3.870437 31.45014 8.758512
2004-05-27 06:53:09 51°18.683 2°54.629 14.485577 3.841345 31.187712 8.82593
2004-05-27 06:53:13 51°18.695 2°54.647 14.484612 3.850831 31.274063 8.82593
2004-05-27 06:53:16 51°18.704 2°54.66 14.490706 3.852518 31.291758 8.893349
2004-05-27 06:53:23 51°18.726 2°54.691 14.490706 3.852518 31.291758 8.893349
2004-05-27 06:53:28 51°18.741 2°54.713 14.484525 3.828275 31.073286 8.960768
2004-05-27 06:53:33 51°18.756 2°54.734 14.480273 3.865272 31.408333 8.960768
2004-05-27 06:53:38 51°18.772 2°54.756 14.4815 3.848302 31.255476 8.994477
2004-05-27 06:53:42 51°18.784 2°54.774 14.481237 3.814784 30.951459 9.061896
2004-05-27 06:53:48 51°18.802 2°54.8 14.481675 3.860212 31.362567 9.061896
2004-05-27 06:53:53 51°18.818 2°54.822 14.481675 3.860212 31.362567 9.061896
2004-05-27 06:53:58 51°18.833 2°54.844 14.48321 3.82427 31.038933 9.230443
2004-05-27 06:54:01 51°18.842 2°54.857 14.477335 3.834283 31.130605 9.297862
2004-05-27 06:54:08 51°18.863 2°54.888 14.480141 3.842715 31.208031 9.365281
2004-05-27 06:54:13 51°18.878 2°54.91 14.477905 3.763561 30.493112 9.466409
2004-05-27 06:54:18 51°18.893 2°54.932 14.478519 3.856418 31.331927 9.533828
2004-05-27 06:54:24 51°18.911 2°54.957 14.478519 3.856418 31.331927 9.533828
2004-05-27 06:54:28 51°18.924 2°54.974 14.477467 3.823848 31.038162 9.668665
2004-05-27 06:54:32 51°18.936 2°54.992 14.474091 3.841978 31.203194 9.702375
2004-05-27 06:54:38 51°18.954 2°55.018 14.474398 3.810779 30.921354 9.769794
2004-05-27 06:54:43 51°18.969 2°55.039 14.471153 3.832597 31.118412 9.870922
2004-05-27 06:54:49 51°18.988 2°55.065 14.476458 3.819316 30.999048 9.870922
2004-05-27 06:54:53 51°19 2°55.082 14.476458 3.819316 30.999048 9.870922
2004-05-27 06:54:58 51°19.015 2°55.103 14.469399 3.818789 30.995502 10.005759
2004-05-27 06:55:03 51°19.03 2°55.125 14.463743 3.687577 29.815442 10.073178
2004-05-27 06:55:08 51°19.045 2°55.147 14.462296 3.818051 30.991264 10.140597
2004-05-27 06:55:12 51°19.058 2°55.164 14.46291 3.824797 31.052806 10.106888
2004-05-27 06:55:18 51°19.076 2°55.19 14.463436 3.848407 31.268665 10.140597
2004-05-27 06:55:24 51°19.095 2°55.216 14.463436 3.848407 31.268665 10.140597
2004-05-27 06:55:28 51°19.107 2°55.233 14.467119 3.803823 30.866413 10.140597
2004-05-27 06:55:32 51°19.119 2°55.25 14.462296 3.857999 31.359115 10.208016
2004-05-27 06:55:38 51°19.138 2°55.276 14.456902 3.850621 31.292973 10.241725
2004-05-27 06:55:43 51°19.153 2°55.298 14.459402 3.828802 31.097515 10.309144
2004-05-27 06:55:48 51°19.168 2°55.32 14.457428 3.854521 31.330096 10.342853
2004-05-27 06:55:53 51°19.183 2°55.341 14.457428 3.854521 31.330096 10.342853
2004-05-27 06:55:58 51°19.198 2°55.363 14.459709 3.842716 31.223306 10.410272
2004-05-27 06:56:04 51°19.216 2°55.389 14.449315 3.861161 31.390803 10.410272
2004-05-27 06:56:08 51°19.228 2°55.406 14.4562 3.84377 31.235285 10.477691
2004-05-27 06:56:13 51°19.243 2°55.427 14.449139 3.770518 30.573733 10.54511
2004-05-27 06:56:18 51°19.258 2°55.448 14.443174 3.864535 31.42441 10.612529
2004-05-27 06:56:24 51°19.277 2°55.474 14.443174 3.864535 31.42441 10.612529
2004-05-27 06:56:26 51°19.283 2°55.482 14.446683 3.80983 30.932158 10.646238
2004-05-27 06:56:33 51°19.304 2°55.513 14.443174 3.860213 31.389593 10.747366
2004-05-27 06:56:36 51°19.313 2°55.525 14.43984 3.857683 31.367922 10.679947
2004-05-27 06:56:44 51°19.337 2°55.56 14.435015 3.794021 30.795421 10.781076
2004-05-27 06:56:48 51°19.349 2°55.577 14.431769 3.846405 31.269529 10.814785
2004-05-27 06:56:53 51°19.365 2°55.598 14.431769 3.846405 31.269529 10.814785
2004-05-27 06:56:58 51°19.38 2°55.62 14.430102 3.824692 31.074356 10.814785
2004-05-27 06:57:03 51°19.395 2°55.641 14.435147 3.839027 31.205831 10.882204
2004-05-27 06:57:08 51°19.41 2°55.663 14.432822 3.849883 31.307139 10.915913
2004-05-27 06:57:12 51°19.422 2°55.68 14.432602 3.849778 31.308639 10.949623
2004-05-27 06:57:18 51°19.44 2°55.707 14.432427 3.857894 31.384584 10.915913
2004-05-27 06:57:24 51°19.456 2°55.735 14.432427 3.857894 31.384584 10.915913
2004-05-27 06:57:28 51°19.467 2°55.754 14.43076 3.847881 31.29453 10.949623
2004-05-27 06:57:33 51°19.48 2°55.778 14.432076 3.849567 31.310412 11.017042
2004-05-27 06:57:38 51°19.493 2°55.803 14.428478 3.825852 31.095194 10.983332
2004-05-27 06:57:41 51°19.501 2°55.818 14.420668 3.852835 31.339997 11.017042
2004-05-27 06:57:48 51°19.518 2°55.853 14.421283 3.786538 30.741109 10.983332
2004-05-27 06:57:53 51°19.531 2°55.879 14.421283 3.786538 30.741109 10.983332
2004-05-27 06:57:58 51°19.543 2°55.904 14.424354 3.859265 31.398225 11.017042
2004-05-27 06:58:02 51°19.553 2°55.924 14.420186 3.848829 31.304959 10.983332
2004-05-27 06:58:06 51°19.563 2°55.944 14.424179 3.856419 31.37614 10.949623
2004-05-27 06:58:13 51°19.581 2°55.98 14.42352 3.695692 29.926981 10.949623
2004-05-27 06:58:16 51°19.588 2°55.995 14.418211 3.831543 31.154005 10.983332
2004-05-27 06:58:21 51°19.601 2°56.02 14.418211 3.831543 31.154005 10.983332
2004-05-27 06:58:29 51°19.621 2°56.06 14.410444 3.91334 31.896048 10.949623
2004-05-27 06:58:33 51°19.631 2°56.08 14.412858 3.913445 31.89763 10.949623
2004-05-27 06:58:38 51°19.644 2°56.105 14.414306 3.913445 31.897005 10.949623
2004-05-27 06:58:42 51°19.654 2°56.125 14.410663 3.913234 31.896967 10.983332
2004-05-27 06:58:48 51°19.67 2°56.155 14.40825 3.913656 31.903298 10.983332
2004-05-27 06:58:53 51°19.682 2°56.18 14.40825 3.913656 31.903298 10.983332
2004-05-27 06:58:58 51°19.695 2°56.205 14.409259 3.913445 31.903887 10.949623
2004-05-27 06:59:03 51°19.708 2°56.23 14.407065 3.913129 31.901015 10.983332
2004-05-27 06:59:08 51°19.72 2°56.255 14.410488 3.91334 31.904181 10.983332
2004-05-27 06:59:13 51°19.733 2°56.28 14.402852 3.91334 31.905433 10.983332
2004-05-27 06:59:18 51°19.746 2°56.306 14.402588 3.913129 31.904144 10.949623
2004-05-27 06:59:21 51°19.754 2°56.32 14.402588 3.913129 31.904144 10.949623
2004-05-27 06:59:29 51°19.774 2°56.361 14.40487 3.913551 31.907973 10.983332
2004-05-27 06:59:33 51°19.785 2°56.381 14.407504 3.913445 31.907642 10.983332
2004-05-27 06:59:38 51°19.797 2°56.406 14.402281 3.913235 31.906979 10.983332
2004-05-27 06:59:42 51°19.808 2°56.426 14.406538 3.913235 31.909483 11.017042
2004-05-27 06:59:46 51°19.817 2°56.446 14.400613 3.913235 31.910109 11.017042
2004-05-27 06:59:52 51°19.833 2°56.476 14.400613 3.913235 31.910109 11.017042
2004-05-27 06:59:57 51°19.846 2°56.5 14.401052 3.913235 31.909483 10.983332
2004-05-27 07:00:03 51°19.861 2°56.53 14.402413 3.91334 31.909814 10.983332
2004-05-27 07:00:08 51°19.874 2°56.555 14.40114 3.913235 31.910109 10.983332
2004-05-27 07:00:13 51°19.887 2°56.58 14.397146 3.913129 31.909777 10.949623
2004-05-27 07:00:18 51°19.9 2°56.605 14.399823 3.91334 31.911693 11.050751
2004-05-27 07:00:24 51°19.915 2°56.635 14.399823 3.91334 31.911693 11.050751
2004-05-27 07:00:28 51°19.926 2°56.655 14.39122 3.91334 31.912319 10.983332
2004-05-27 07:00:33 51°19.938 2°56.68 14.389815 3.913551 31.915486 10.983332
2004-05-27 07:00:38 51°19.951 2°56.706 14.392668 3.913551 31.916739 10.983332
2004-05-27 07:00:43 51°19.964 2°56.73 14.397892 3.91334 31.916702 11.050751
2004-05-27 07:00:48 51°19.977 2°56.756 14.396224 3.913551 31.918618 11.050751
2004-05-27 07:00:53 51°19.99 2°56.78 14.396224 3.913551 31.918618 11.050751
2004-05-27 07:00:58 51°20.003 2°56.805 14.391878 3.91334 31.919208 11.050751
2004-05-27 07:01:04 51°20.018 2°56.835 14.399867 3.913446 31.922672 11.050751
2004-05-27 07:01:09 51°20.031 2°56.86 14.39021 3.913235 31.919503 11.08446
2004-05-27 07:01:12 51°20.039 2°56.875 14.389508 3.913446 31.920792 11.08446
2004-05-27 07:01:18 51°20.055 2°56.905 14.387049 3.913446 31.921419 11.08446
2004-05-27 07:01:24 51°20.07 2°56.934 14.387049 3.913446 31.921419 11.08446
2004-05-27 07:01:28 51°20.08 2°56.954 14.38841 3.913235 31.91825 11.151879
2004-05-27 07:01:33 51°20.093 2°56.979 14.385688 3.913446 31.920792 11.151879
2004-05-27 07:01:38 51°20.106 2°57.005 14.384679 3.913235 31.92013 11.151879
2004-05-27 07:01:44 51°20.122 2°57.035 14.387049 3.91334 31.922967 11.11817
2004-05-27 07:01:47 51°20.129 2°57.05 14.382615 3.91334 31.922967 11.151879
2004-05-27 07:01:53 51°20.145 2°57.08 14.382615 3.91334 31.922967 11.151879
2004-05-27 07:01:58 51°20.158 2°57.105 14.383493 3.913235 31.923262 11.219298
2004-05-27 07:02:02 51°20.168 2°57.125 14.384591 3.913024 31.923226 11.185589
2004-05-27 07:02:08 51°20.183 2°57.155 14.379103 3.913024 31.923853 11.219298
2004-05-27 07:02:13 51°20.196 2°57.18 14.379674 3.913024 31.923853 11.219298
2004-05-27 07:02:18 51°20.209 2°57.206 14.378357 3.913024 31.925107 11.185589
2004-05-27 07:02:22 51°20.22 2°57.225 14.378357 3.913024 31.925107 11.185589
2004-05-27 07:02:28 51°20.235 2°57.255 14.377435 3.913024 31.925107 11.219298
2004-05-27 07:02:33 51°20.247 2°57.281 14.37963 3.913024 31.927614 11.253007
2004-05-27 07:02:38 51°20.26 2°57.305 14.374185 3.913235 31.930784 11.253007
2004-05-27 07:02:43 51°20.273 2°57.331 14.376776 3.91313 31.929826 11.286717
2004-05-27 07:02:48 51°20.286 2°57.357 14.374976 3.913235 31.932665 11.253007
2004-05-27 07:02:53 51°20.299 2°57.381 14.374976 3.913235 31.932665 11.253007
2004-05-27 07:02:58 51°20.311 2°57.407 14.368741 3.91334 31.931742 11.185589
2004-05-27 07:03:02 51°20.322 2°57.426 14.378137 3.913235 31.932665 11.219298
2004-05-27 07:03:09 51°20.34 2°57.462 14.376469 3.912919 31.931044 11.253007
2004-05-27 07:03:12 51°20.348 2°57.476 14.369838 3.913446 31.93709 11.185589
2004-05-27 07:03:17 51°20.361 2°57.501 14.373307 3.913235 31.936428 11.185589
2004-05-27 07:03:24 51°20.379 2°57.537 14.373307 3.913235 31.936428 11.185589
2004-05-27 07:03:29 51°20.392 2°57.562 14.373395 3.91313 31.936096 11.185589
2004-05-27 07:03:32 51°20.4 2°57.577 14.370585 3.91334 31.937386 11.151879
2004-05-27 07:03:38 51°20.415 2°57.607 14.366764 3.913657 31.938379 11.185589
2004-05-27 07:03:42 51°20.426 2°57.628 14.370277 3.913551 31.939303 11.219298
2004-05-27 07:03:48 51°20.441 2°57.657 14.365974 3.913657 31.940261 11.151879
2004-05-27 07:03:53 51°20.454 2°57.683 14.365974 3.913657 31.940261 11.151879
2004-05-27 07:03:58 51°20.467 2°57.708 14.367379 3.913551 31.940557 11.185589
2004-05-27 07:04:01 51°20.475 2°57.723 14.365798 3.913762 31.942474 11.151879
2004-05-27 07:04:09 51°20.495 2°57.764 14.368301 3.913868 31.944687 11.151879
2004-05-27 07:04:12 51°20.503 2°57.778 14.363778 3.913657 31.943398 11.185589
2004-05-27 07:04:18 51°20.518 2°57.809 14.362505 3.913657 31.943398 11.11817
2004-05-27 07:04:22 51°20.53 2°57.828 14.362505 3.913657 31.943398 11.11817
2004-05-27 07:04:29 51°20.547 2°57.864 14.359123 3.913657 31.944025 11.151879
2004-05-27 07:04:33 51°20.558 2°57.884 14.360529 3.913551 31.943694 11.151879
2004-05-27 07:04:38 51°20.57 2°57.909 14.361626 3.913551 31.944949 11.185589
2004-05-27 07:04:42 51°20.581 2°57.929 14.368082 3.913657 31.947163 11.185589
2004-05-27 07:04:49 51°20.599 2°57.964 14.365754 3.913657 31.949046 11.185589
2004-05-27 07:04:53 51°20.609 2°57.984 14.365754 3.913657 31.949046 11.185589
2004-05-27 07:04:58 51°20.622 2°58.009 14.364349 3.913551 31.948087 11.151879
2004-05-27 07:05:03 51°20.635 2°58.034 14.363778 3.913868 31.951591 11.185589
2004-05-27 07:05:08 51°20.648 2°58.059 14.361319 3.913762 31.948121 11.219298
2004-05-27 07:05:13 51°20.661 2°58.084 14.359343 3.914078 31.950997 11.253007
2004-05-27 07:05:16 51°20.668 2°58.099 14.362373 3.914078 31.950997 11.286717
2004-05-27 07:05:23 51°20.686 2°58.134 14.362373 3.914078 31.950997 11.286717
2004-05-27 07:05:29 51°20.702 2°58.164 14.362241 3.914184 31.952584 11.253007
2004-05-27 07:05:33 51°20.712 2°58.184 14.370497 3.914184 31.953839 11.253007
2004-05-27 07:05:38 51°20.724 2°58.209 14.36514 3.914289 31.955425 11.253007
2004-05-27 07:05:42 51°20.735 2°58.23 14.362285 3.914184 31.953839 11.286717
2004-05-27 07:05:48 51°20.75 2°58.259 14.362153 3.914184 31.953211 11.286717
2004-05-27 07:05:52 51°20.76 2°58.279 14.362153 3.914184 31.953211 11.286717
2004-05-27 07:05:58 51°20.775 2°58.309 14.361539 3.914395 31.953873 11.253007
2004-05-27 07:06:03 51°20.788 2°58.334 14.358464 3.914395 31.95199 11.286717
2004-05-27 07:06:08 51°20.8 2°58.36 14.35842 3.9145 31.954832 11.320426
2004-05-27 07:06:12 51°20.811 2°58.38 14.363164 3.914711 31.957377 11.387845
2004-05-27 07:06:17 51°20.823 2°58.404 14.357147 3.9145 31.957343 11.354136
2004-05-27 07:06:21 51°20.834 2°58.424 14.357147 3.9145 31.957343 11.354136
2004-05-27 07:06:29 51°20.854 2°58.464 14.35886 3.9145 31.957343 11.455264
2004-05-27 07:06:33 51°20.864 2°58.484 14.348406 3.914606 31.958929 11.387845
2004-05-27 07:06:38 51°20.877 2°58.509 14.348933 3.9145 31.958599 11.219298
2004-05-27 07:06:42 51°20.888 2°58.529 14.341378 3.914289 31.957309 11.219298
2004-05-27 07:06:49 51°20.906 2°58.563 14.340982 3.914079 31.957275 11.11817
2004-05-27 07:06:53 51°20.916 2°58.584 14.340982 3.914079 31.957275 11.11817
2004-05-27 07:06:57 51°20.926 2°58.604 14.3452 3.913762 31.95691 11.08446
2004-05-27 07:07:04 51°20.944 2°58.639 14.344058 3.913341 31.955587 11.050751
2004-05-27 07:07:09 51°20.957 2°58.665 14.338039 3.913341 31.956843 10.915913
2004-05-27 07:07:13 51°20.967 2°58.685 14.334832 3.913341 31.959983 10.882204
2004-05-27 07:07:18 51°20.978 2°58.712 14.338127 3.91313 31.958693 10.814785
2004-05-27 07:07:21 51°20.986 2°58.727 14.338127 3.91313 31.958693 10.814785
2004-05-27 07:07:28 51°21.002 2°58.765 14.330438 3.912708 31.955485 10.781076
2004-05-27 07:07:33 51°21.013 2°58.792 14.325649 3.912603 31.957039 10.781076
2004-05-27 07:07:38 51°21.025 2°58.818 14.323892 3.912498 31.95608 10.747366
2004-05-27 07:07:44 51°21.039 2°58.85 14.316113 3.912392 31.956377 10.713657
2004-05-27 07:07:48 51°21.048 2°58.872 14.315674 3.912181 31.956971 10.679947
2004-05-27 07:07:53 51°21.059 2°58.899 14.315674 3.912181 31.956971 10.679947
2004-05-27 07:07:58 51°21.07 2°58.926 14.314224 3.911865 31.957235 10.679947
2004-05-27 07:08:04 51°21.083 2°58.96 14.316201 3.911971 31.961965 10.713657
2004-05-27 07:08:08 51°21.091 2°58.982 14.313784 3.911233 31.960277 10.713657
2004-05-27 07:08:13 51°21.1 2°59.01 14.314356 3.910917 31.959913 10.646238
2004-05-27 07:08:18 51°21.109 2°59.039 14.31229 3.910917 31.961171 10.612529
2004-05-27 07:08:22 51°21.116 2°59.062 14.31229 3.910917 31.961171 10.612529
2004-05-27 07:08:28 51°21.127 2°59.096 14.314004 3.910706 31.95988 10.646238
2004-05-27 07:08:33 51°21.136 2°59.125 14.314312 3.910917 31.963057 10.5114
2004-05-27 07:08:38 51°21.145 2°59.153 14.313081 3.910917 31.963057 10.612529
2004-05-27 07:08:43 51°21.155 2°59.182 14.317212 3.910811 31.962097 10.54511
2004-05-27 07:08:49 51°21.168 2°59.215 14.318003 3.910917 31.962428 10.54511
2004-05-27 07:08:53 51°21.177 2°59.236 14.318003 3.910917 31.962428 10.54511
2004-05-27 07:08:58 51°21.189 2°59.263 14.319278 3.911022 31.964017 10.54511
2004-05-27 07:09:02 51°21.198 2°59.283 14.318618 3.911022 31.964017 10.443982
2004-05-27 07:09:08 51°21.213 2°59.314 14.31563 3.911127 31.964976 10.477691
2004-05-27 07:09:13 51°21.226 2°59.34 14.313477 3.911127 31.964348 10.477691
2004-05-27 07:09:18 51°21.239 2°59.365 14.314136 3.911127 31.963719 10.5114
2004-05-27 07:09:24 51°21.255 2°59.395 14.314136 3.911127 31.963719 10.5114
2004-05-27 07:09:29 51°21.268 2°59.419 14.306796 3.911338 31.965009 10.54511
2004-05-27 07:09:33 51°21.279 2°59.439 14.306005 3.911233 31.965307 10.54511
2004-05-27 07:09:38 51°21.293 2°59.463 14.306664 3.911444 31.966598 10.5114
2004-05-27 07:09:43 51°21.306 2°59.487 14.304379 3.911338 31.967525 10.578819
2004-05-27 07:09:49 51°21.323 2°59.516 14.303236 3.911128 31.967492 10.477691
2004-05-27 07:09:53 51°21.334 2°59.535 14.303236 3.911128 31.967492 10.477691
2004-05-27 07:09:58 51°21.347 2°59.559 14.300862 3.911022 31.969048 10.443982
2004-05-27 07:10:04 51°21.364 2°59.589 14.304247 3.911128 31.971895 10.443982
2004-05-27 07:10:08 51°21.375 2°59.608 14.303807 3.911233 31.972855 10.443982
2004-05-27 07:10:13 51°21.388 2°59.633 14.299763 3.911128 31.973154 10.477691
2004-05-27 07:10:18 51°21.402 2°59.657 14.300027 3.911128 31.975042 10.443982
2004-05-27 07:10:22 51°21.413 2°59.676 14.300027 3.911128 31.975042 10.443982
2004-05-27 07:10:28 51°21.429 2°59.706 14.295807 3.911338 31.976962 10.410272
2004-05-27 07:10:32 51°21.44 2°59.725 14.296511 3.911233 31.976002 10.477691
2004-05-27 07:10:38 51°21.457 2°59.755 14.293082 3.911233 31.976631 10.410272
2004-05-27 07:10:43 51°21.47 2°59.779 14.297697 3.911444 31.980439 10.443982
2004-05-27 07:10:48 51°21.484 2°59.804 14.298225 3.911549 31.98077 10.410272
2004-05-27 07:10:52 51°21.495 2°59.823 14.298225 3.911549 31.98077 10.410272
2004-05-27 07:10:57 51°21.509 2°59.848 14.29251 3.911128 31.979447 10.443982
2004-05-27 07:11:01 51°21.52 2°59.868 14.290884 3.911233 31.980407 10.410272
2004-05-27 07:11:09 51°21.541 2°59.907 14.294576 3.911339 31.982627 10.477691
2004-05-27 07:11:12 51°21.549 2°59.922 14.292071 3.911233 31.979778 10.443982
2004-05-27 07:11:18 51°21.566 2°59.952 14.289653 3.911549 31.983288 10.410272
2004-05-27 07:11:22 51°21.576 2°59.971 14.289653 3.911549 31.983288 10.410272
2004-05-27 07:11:29 51°21.595 3°0.006 14.292202 3.911444 31.984846 10.410272
2004-05-27 07:11:33 51°21.606 3°0.025 14.290004 3.911444 31.983587 10.376563
2004-05-27 07:11:38 51°21.62 3°0.05 14.289037 3.911444 31.984216 10.342853
2004-05-27 07:11:44 51°21.636 3°0.08 14.289257 3.911444 31.985476 10.376563
2004-05-27 07:11:49 51°21.649 3°0.105 14.28552 3.911339 31.986404 10.342853
2004-05-27 07:11:53 51°21.66 3°0.125 14.28552 3.911339 31.986404 10.342853
2004-05-27 07:11:58 51°21.673 3°0.15 14.295719 3.911444 31.986735 10.342853
2004-05-27 07:12:04 51°21.69 3°0.179 14.288817 3.911444 31.988624 10.241725
2004-05-27 07:12:08 51°21.701 3°0.198 14.28596 3.911339 31.987664 10.241725
2004-05-27 07:12:13 51°21.714 3°0.223 14.281079 3.911655 31.991175 10.208016
2004-05-27 07:12:18 51°21.728 3°0.248 14.280464 3.91176 31.989616 10.174306
2004-05-27 07:12:24 51°21.744 3°0.278 14.280464 3.91176 31.989616 10.174306
2004-05-27 07:12:26 51°21.75 3°0.287 14.281079 3.911971 31.992167 10.174306
2004-05-27 07:12:33 51°21.768 3°0.322 14.281211 3.911971 31.993426 10.140597
2004-05-27 07:12:38 51°21.782 3°0.346 14.270702 3.912182 31.997237 10.174306
2004-05-27 07:12:44 51°21.798 3°0.376 14.271977 3.912182 32.000388 10.140597
2004-05-27 07:12:48 51°21.809 3°0.396 14.271317 3.911971 31.999727 10.140597
2004-05-27 07:12:54 51°21.825 3°0.425 14.271317 3.911971 31.999727 10.140597
2004-05-27 07:12:58 51°21.836 3°0.445 14.267491 3.912077 32.001948 10.208016
2004-05-27 07:13:02 51°21.847 3°0.464 14.258827 3.912182 32.00543 10.174306
2004-05-27 07:13:09 51°21.866 3°0.499 14.25764 3.911971 32.004769 10.174306
2004-05-27 07:13:12 51°21.873 3°0.514 14.25764 3.912393 32.011134 10.241725
2004-05-27 07:13:17 51°21.887 3°0.538 14.256056 3.912709 32.014647 10.241725
2004-05-27 07:13:24 51°21.906 3°0.573 14.256056 3.912709 32.014647 10.241725
2004-05-27 07:13:29 51°21.919 3°0.597 14.253989 3.913026 32.021315 10.241725
2004-05-27 07:13:32 51°21.927 3°0.612 14.253021 3.913553 32.029275 10.208016
2004-05-27 07:13:38 51°21.943 3°0.641 14.247874 3.910917 32.00714 10.241725
2004-05-27 07:13:42 51°21.954 3°0.661 14.242859 3.913869 32.035314 10.174306
2004-05-27 07:13:48 51°21.97 3°0.691 14.23802 3.914291 32.039791 10.208016
2004-05-27 07:13:53 51°21.983 3°0.715 14.23802 3.914291 32.039791 10.208016
2004-05-27 07:13:58 51°21.997 3°0.739 14.245235 3.914818 32.047755 10.208016
2004-05-27 07:14:01 51°22.005 3°0.754 14.236524 3.914818 32.04965 10.208016
2004-05-27 07:14:09 51°22.026 3°0.793 14.235776 3.914923 32.05377 10.208016
2004-05-27 07:14:12 51°22.034 3°0.809 14.233752 3.914712 32.055007 10.241725
2004-05-27 07:14:18 51°22.05 3°0.838 14.23318 3.914502 32.054979 10.241725
2004-05-27 07:14:22 51°22.061 3°0.857 14.23318 3.914502 32.054979 10.241725
2004-05-27 07:14:29 51°22.08 3°0.892 14.231464 3.914607 32.057205 10.275435
2004-05-27 07:14:33 51°22.09 3°0.911 14.230408 3.914607 32.059101 10.275435
2004-05-27 07:14:38 51°22.104 3°0.936 14.233048 3.914818 32.061657 10.342853
2004-05-27 07:14:42 51°22.114 3°0.956 14.227988 3.914923 32.065148 10.309144
2004-05-27 07:14:49 51°22.133 3°0.99 14.228076 3.915134 32.067704 10.376563
2004-05-27 07:14:52 51°22.14 3°1.005 14.228076 3.915134 32.067704 10.376563
2004-05-27 07:14:57 51°22.154 3°1.03 14.230188 3.915029 32.068007 10.410272
2004-05-27 07:15:04 51°22.172 3°1.065 14.2345 3.915134 32.069602 10.410272
2004-05-27 07:15:09 51°22.185 3°1.089 14.229176 3.91524 32.071196 10.410272
2004-05-27 07:15:13 51°22.196 3°1.11 14.227548 3.91524 32.071196 10.443982
2004-05-27 07:15:18 51°22.209 3°1.134 14.223851 3.91524 32.071829 10.5114
2004-05-27 07:15:23 51°22.223 3°1.159 14.223851 3.91524 32.071829 10.5114
2004-05-27 07:15:29 51°22.239 3°1.188 14.224819 3.915661 32.075044 10.54511
2004-05-27 07:15:33 51°22.249 3°1.208 14.223807 3.915872 32.076336 10.5114
2004-05-27 07:15:37 51°22.26 3°1.228 14.225215 3.916399 32.083044 10.646238
2004-05-27 07:15:44 51°22.279 3°1.262 14.228956 3.916821 32.088791 10.679947
2004-05-27 07:15:49 51°22.292 3°1.287 14.231684 3.916926 32.09102 10.713657
2004-05-27 07:15:52 51°22.301 3°1.301 14.231684 3.916926 32.09102 10.713657
2004-05-27 07:15:58 51°22.316 3°1.331 14.223279 3.917348 32.094869 10.781076
2004-05-27 07:16:04 51°22.332 3°1.361 14.2279 3.917559 32.096793 10.781076
2004-05-27 07:16:08 51°22.343 3°1.38 14.220595 3.917664 32.096489 10.848494
2004-05-27 07:16:12 51°22.353 3°1.4 14.219846 3.91798 32.098742 10.882204
2004-05-27 07:16:16 51°22.364 3°1.419 14.214169 3.918718 32.106111 10.915913
2004-05-27 07:16:24 51°22.385 3°1.459 14.214169 3.918718 32.106111 10.915913
2004-05-27 07:16:27 51°22.393 3°1.473 14.20651 3.919562 32.114443 10.949623
2004-05-27 07:16:33 51°22.409 3°1.503 14.212717 3.920405 32.124676 10.949623
2004-05-27 07:16:37 51°22.419 3°1.523 14.2121 3.921565 32.137165 10.949623
2004-05-27 07:16:44 51°22.438 3°1.557 14.20651 3.922303 32.14644 11.017042
2004-05-27 07:16:49 51°22.451 3°1.581 14.207743 3.922935 32.155388 11.050751
2004-05-27 07:16:53 51°22.462 3°1.601 14.207743 3.922935 32.155388 11.050751
2004-05-27 07:16:58 51°22.475 3°1.625 14.2007 3.922935 32.156022 11.050751
2004-05-27 07:17:03 51°22.488 3°1.649 14.199643 3.923251 32.16018 11.08446
2004-05-27 07:17:08 51°22.502 3°1.674 14.194624 3.923251 32.160815 11.11817
2004-05-27 07:17:13 51°22.515 3°1.698 14.195065 3.923462 32.16401 11.11817
2004-05-27 07:17:18 51°22.528 3°1.723 14.193084 3.923462 32.165915 11.151879
2004-05-27 07:17:21 51°22.536 3°1.737 14.193084 3.923462 32.165915 11.151879
2004-05-27 07:17:29 51°22.557 3°1.777 14.187008 3.923568 32.169417 11.11817
2004-05-27 07:17:33 51°22.568 3°1.797 14.181724 3.924095 32.177408 11.151879
2004-05-27 07:17:38 51°22.581 3°1.821 14.1771 3.924622 32.183495 11.11817
2004-05-27 07:17:42 51°22.591 3°1.841 14.173533 3.925044 32.18989 11.08446
2004-05-27 07:17:46 51°22.602 3°1.86 14.175779 3.925782 32.197905 11.11817
2004-05-27 07:17:52 51°22.618 3°1.89 14.175779 3.925782 32.197905 11.11817
2004-05-27 07:17:57 51°22.631 3°1.914 14.169173 3.92673 32.211027 11.08446
2004-05-27 07:18:03 51°22.647 3°1.943 14.171331 3.927257 32.219663 11.08446
2004-05-27 07:18:08 51°22.66 3°1.968 14.163315 3.927574 32.226373 11.11817
2004-05-27 07:18:13 51°22.673 3°1.992 14.175955 3.928206 32.234067 11.11817
2004-05-27 07:18:18 51°22.686 3°2.016 14.162742 3.928523 32.238869 11.11817
2004-05-27 07:18:24 51°22.702 3°2.045 14.162742 3.928523 32.238869 11.11817
2004-05-27 07:18:28 51°22.713 3°2.063 14.162258 3.928733 32.242071 11.11817
2004-05-27 07:18:33 51°22.727 3°2.085 14.156444 3.928839 32.245584 11.151879
2004-05-27 07:18:38 51°22.743 3°2.105 14.14684 3.928944 32.247822 11.11817
2004-05-27 07:18:43 51°22.759 3°2.123 14.143976 3.929155 32.250388 11.08446
2004-05-27 07:18:48 51°22.776 3°2.139 14.135781 3.929261 32.253264 11.11817
2004-05-27 07:18:53 51°22.794 3°2.152 14.135781 3.929261 32.253264 11.11817
2004-05-27 07:18:58 51°22.812 3°2.162 14.134106 3.929366 32.257416 11.151879
2004-05-27 07:19:03 51°22.831 3°2.169 14.133357 3.929155 32.261226 11.151879
2004-05-27 07:19:09 51°22.854 3°2.174 14.129391 3.92905 32.264727 11.151879
2004-05-27 07:19:13 51°22.869 3°2.175 14.131903 3.928734 32.266299 11.151879
2004-05-27 07:19:18 51°22.889 3°2.176 14.13512 3.928523 32.268837 11.08446
2004-05-27 07:19:23 51°22.908 3°2.175 14.13512 3.928523 32.268837 11.08446
2004-05-27 07:19:28 51°22.927 3°2.174 14.126086 3.928312 32.26946 10.949623
2004-05-27 07:19:32 51°22.943 3°2.172 14.130757 3.928207 32.271687 10.848494
2004-05-27 07:19:38 51°22.966 3°2.169 14.128113 3.928418 32.273617 10.612529
2004-05-27 07:19:42 51°22.981 3°2.168 14.127452 3.928312 32.272013 10.54511
2004-05-27 07:19:49 51°23.009 3°2.166 14.126394 3.928418 32.274255 10.443982
2004-05-27 07:19:53 51°23.024 3°2.165 14.126394 3.928418 32.274255 10.443982
2004-05-27 07:19:58 51°23.044 3°2.165 14.134899 3.928418 32.274255 10.376563
2004-05-27 07:20:03 51°23.064 3°2.165 14.127188 3.928734 32.277789 10.309144
2004-05-27 07:20:08 51°23.083 3°2.165 14.114098 3.928523 32.275859 10.309144
2004-05-27 07:20:13 51°23.103 3°2.166 14.118505 3.925888 32.253648 10.376563
2004-05-27 07:20:17 51°23.119 3°2.168 14.132388 3.928734 32.277789 10.477691
2004-05-27 07:20:24 51°23.146 3°2.171 14.132388 3.928734 32.277789 10.477691
2004-05-27 07:20:29 51°23.166 3°2.173 14.122163 3.928839 32.278754 10.646238
2004-05-27 07:20:33 51°23.182 3°2.176 14.111894 3.928945 32.283552 10.814785
2004-05-27 07:20:38 51°23.201 3°2.178 14.118197 3.928734 32.282899 10.949623
2004-05-27 07:20:42 51°23.217 3°2.18 14.110527 3.928734 32.280983 10.983332
2004-05-27 07:20:48 51°23.241 3°2.183 14.105678 3.92905 32.283239 11.017042
2004-05-27 07:20:53 51°23.26 3°2.186 14.105678 3.92905 32.283239 11.017042
2004-05-27 07:20:58 51°23.28 3°2.188 14.09858 3.929261 32.288364 11.08446
2004-05-27 07:21:04 51°23.304 3°2.19 14.091261 3.929156 32.289955 11.151879
2004-05-27 07:21:08 51°23.319 3°2.193 14.089101 3.929367 32.29636 11.185589
2004-05-27 07:21:12 51°23.335 3°2.194 14.088086 3.929261 32.298591 11.253007
2004-05-27 07:21:18 51°23.359 3°2.197 14.087866 3.928945 32.298891 11.354136
2004-05-27 07:21:23 51°23.379 3°2.199 14.087866 3.928945 32.298891 11.354136
2004-05-27 07:21:29 51°23.402 3°2.202 14.082133 3.928418 32.298538 11.387845
2004-05-27 07:21:33 51°23.418 3°2.204 14.084779 3.928524 32.303342 11.354136
2004-05-27 07:21:38 51°23.437 3°2.207 14.082001 3.928629 32.306867 11.320426
2004-05-27 07:21:43 51°23.457 3°2.209 14.076003 3.929051 32.312011 11.253007
2004-05-27 07:21:48 51°23.477 3°2.211 14.084118 3.929578 32.320683 11.253007
2004-05-27 07:21:53 51°23.496 3°2.214 14.084118 3.929578 32.320683 11.253007
2004-05-27 07:21:58 51°23.516 3°2.217 14.07027 3.93 32.324547 11.253007
2004-05-27 07:22:03 51°23.535 3°2.219 14.069696 3.930105 32.326154 11.253007
2004-05-27 07:22:08 51°23.555 3°2.221 14.073445 3.930527 32.333222 11.320426
2004-05-27 07:22:13 51°23.575 3°2.224 14.067138 3.930632 32.335469 11.387845
2004-05-27 07:22:18 51°23.594 3°2.227 14.063477 3.930948 32.340291 11.354136
2004-05-27 07:22:24 51°23.618 3°2.229 14.063477 3.930948 32.340291 11.354136
2004-05-27 07:22:28 51°23.634 3°2.232 14.064491 3.931159 32.345428 11.455264
2004-05-27 07:22:32 51°23.649 3°2.234 14.062727 3.930948 32.344136 11.455264
2004-05-27 07:22:37 51°23.669 3°2.236 14.062065 3.93137 32.349285 11.522683
2004-05-27 07:22:43 51°23.692 3°2.239 14.068726 3.931159 32.350557 11.522683
2004-05-27 07:22:49 51°23.716 3°2.242 14.053639 3.931265 32.352165 11.488973
2004-05-27 07:22:53 51°23.731 3°2.245 14.053639 3.931265 32.352165 11.488973
2004-05-27 07:22:58 51°23.751 3°2.247 14.058977 3.931476 32.355381 11.455264
2004-05-27 07:23:03 51°23.771 3°2.249 14.05761 3.931159 32.354405 11.522683
2004-05-27 07:23:08 51°23.79 3°2.252 14.052007 3.930949 32.351189 11.488973
2004-05-27 07:23:13 51°23.81 3°2.254 14.057963 3.931265 32.356013 11.488973
2004-05-27 07:23:18 51°23.829 3°2.257 14.044462 3.930738 32.354386 11.623811
2004-05-27 07:23:21 51°23.841 3°2.259 14.044462 3.930738 32.354386 11.623811
2004-05-27 07:23:28 51°23.869 3°2.263 14.040226 3.930843 32.355353 11.556392
2004-05-27 07:23:33 51°23.889 3°2.265 14.039211 3.930843 32.358561 11.590101
2004-05-27 07:23:38 51°23.908 3°2.268 14.033695 3.930527 32.357584 11.69123
2004-05-27 07:23:42 51°23.924 3°2.271 14.03268 3.930316 32.357575 11.69123
2004-05-27 07:23:49 51°23.952 3°2.275 14.028531 3.929895 32.355631 11.758648
2004-05-27 07:23:53 51°23.967 3°2.277 14.028531 3.929895 32.355631 11.758648
2004-05-27 07:23:57 51°23.983 3°2.279 14.027472 3.929473 32.354971 11.758648
2004-05-27 07:24:04 51°24.011 3°2.283 14.026987 3.929051 32.353669 11.792358
2004-05-27 07:24:08 51°24.027 3°2.286 14.026766 3.92863 32.353009 11.758648
2004-05-27 07:24:13 51°24.046 3°2.288 14.027472 3.928103 32.351381 11.724939
2004-05-27 07:24:18 51°24.066 3°2.291 14.036872 3.92747 32.347501 11.69123
2004-05-27 07:24:23 51°24.086 3°2.293 14.036872 3.92747 32.347501 11.69123
2004-05-27 07:24:29 51°24.11 3°2.297 14.05033 3.927154 32.34524 11.65752
2004-05-27 07:24:33 51°24.125 3°2.299 14.061536 3.927049 32.345557 11.69123
2004-05-27 07:24:37 51°24.141 3°2.301 14.071902 3.92747 32.350069 11.758648
2004-05-27 07:24:44 51°24.169 3°2.305 14.080105 3.928103 32.352664 11.859777
2004-05-27 07:24:49 51°24.189 3°2.308 14.086102 3.929262 32.356887 11.994614
2004-05-27 07:24:52 51°24.2 3°2.31 14.086102 3.929262 32.356887 11.994614
2004-05-27 07:24:58 51°24.224 3°2.313 14.086852 3.930738 32.363369 12.095742
2004-05-27 07:25:02 51°24.24 3°2.316 14.090159 3.932319 32.370816 12.23058
2004-05-27 07:25:09 51°24.267 3°2.32 14.085308 3.933584 32.373435 12.331708
2004-05-27 07:25:13 51°24.283 3°2.322 14.087954 3.93527 32.382486 12.432836
2004-05-27 07:25:18 51°24.303 3°2.325 14.087116 3.93643 32.388628 12.500255
2004-05-27 07:25:24 51°24.326 3°2.328 14.087116 3.93643 32.388628 12.500255
2004-05-27 07:25:28 51°24.342 3°2.33 14.084515 3.937695 32.396376 12.500255
2004-05-27 07:25:32 51°24.358 3°2.333 14.087425 3.938644 32.404434 12.500255
2004-05-27 07:25:39 51°24.385 3°2.337 14.085617 3.939171 32.410551 12.500255
2004-05-27 07:25:44 51°24.405 3°2.339 14.092055 3.939698 32.415384 12.466546
2004-05-27 07:25:48 51°24.421 3°2.342 14.086323 3.94012 32.419251 12.500255
2004-05-27 07:25:53 51°24.44 3°2.345 14.086323 3.94012 32.419251 12.500255
2004-05-27 07:25:58 51°24.46 3°2.348 14.088439 3.940541 32.422475 12.500255
2004-05-27 07:26:01 51°24.471 3°2.349 14.079796 3.940963 32.426985 12.567674
2004-05-27 07:26:09 51°24.503 3°2.354 14.076091 3.94149 32.429891 12.668802
2004-05-27 07:26:14 51°24.522 3°2.356 14.073269 3.942122 32.435048 12.635093
2004-05-27 07:26:18 51°24.538 3°2.357 14.068946 3.942544 32.439558 12.76993
2004-05-27 07:26:22 51°24.554 3°2.359 14.068946 3.942544 32.439558 12.76993
2004-05-27 07:26:28 51°24.577 3°2.362 14.066123 3.942755 32.442777 12.80364
2004-05-27 07:26:32 51°24.593 3°2.364 14.053551 3.943282 32.452111 12.904768
2004-05-27 07:26:38 51°24.616 3°2.367 14.038549 3.943071 32.454679 12.904768
2004-05-27 07:26:44 51°24.64 3°2.37 14.034092 3.943071 32.457895 12.938477
2004-05-27 07:26:48 51°24.656 3°2.372 14.026854 3.943282 32.46369 12.938477
2004-05-27 07:26:53 51°24.675 3°2.375 14.026854 3.943282 32.46369 12.938477
2004-05-27 07:26:58 51°24.695 3°2.377 14.027252 3.942861 32.462395 12.904768
2004-05-27 07:27:04 51°24.718 3°2.383 14.024559 3.943072 32.472055 12.904768
2004-05-27 07:27:09 51°24.738 3°2.39 14.039211 3.942545 32.476234 12.76993
2004-05-27 07:27:13 51°24.753 3°2.397 14.039873 3.941912 32.476869 12.76993
2004-05-27 07:27:18 51°24.772 3°2.407 14.023235 3.941491 32.475575 12.702512
2004-05-27 07:27:23 51°24.79 3°2.418 14.023235 3.941491 32.475575 12.702512
2004-05-27 07:27:29 51°24.812 3°2.432 14.012111 3.94128 32.475572 12.736221
2004-05-27 07:27:33 51°24.827 3°2.443 14.004562 3.940858 32.469122 12.80364
2004-05-27 07:27:38 51°24.844 3°2.459 14.011229 3.941069 32.46977 12.871059
2004-05-27 07:27:44 51°24.864 3°2.479 14.008227 3.941069 32.472991 13.005896
2004-05-27 07:27:48 51°24.877 3°2.493 14.01732 3.940753 32.475887 13.005896
2004-05-27 07:27:54 51°24.897 3°2.516 14.01732 3.940753 32.475887 13.005896
2004-05-27 07:27:58 51°24.909 3°2.531 14.010301 3.940015 32.476845 13.005896
2004-05-27 07:28:02 51°24.922 3°2.547 14.012641 3.93991 32.475877 13.005896
2004-05-27 07:28:09 51°24.942 3°2.578 14.010434 3.939699 32.476519 13.073315
2004-05-27 07:28:12 51°24.951 3°2.593 14.015157 3.939593 32.472971 13.174443
2004-05-27 07:28:17 51°24.964 3°2.616 14.014363 3.939382 32.471034 13.275571
2004-05-27 07:28:24 51°24.982 3°2.65 14.014363 3.939382 32.471034 13.275571
2004-05-27 07:28:29 51°24.995 3°2.676 14.012994 3.939066 32.470063 13.309281
2004-05-27 07:28:32 51°25.002 3°2.691 14.013436 3.939066 32.471352 13.34299
2004-05-27 07:28:38 51°25.018 3°2.72 14.006107 3.938328 32.462639 13.444118
2004-05-27 07:28:42 51°25.028 3°2.74 14.004871 3.938539 32.463931 13.410409
2004-05-27 07:28:48 51°25.044 3°2.77 13.997851 3.938434 32.463608 13.3767
2004-05-27 07:28:53 51°25.057 3°2.794 13.997851 3.938434 32.463608 13.3767
2004-05-27 07:28:58 51°25.07 3°2.819 13.988622 3.938223 32.461671 13.410409
2004-05-27 07:29:01 51°25.078 3°2.834 13.981821 3.938223 32.46296 13.34299
2004-05-27 07:29:09 51°25.098 3°2.874 13.975594 3.938012 32.464246 13.444118
2004-05-27 07:29:13 51°25.109 3°2.894 13.984648 3.937907 32.467146 13.545247
2004-05-27 07:29:18 51°25.121 3°2.92 13.974533 3.937485 32.46843 13.477828
2004-05-27 07:29:24 51°25.136 3°2.95 13.974533 3.937485 32.46843 13.477828
2004-05-27 07:29:29 51°25.148 3°2.977 13.96592 3.937169 32.470683 13.34299
2004-05-27 07:29:33 51°25.157 3°2.998 13.95514 3.937169 32.475845 13.241862
2004-05-27 07:29:38 51°25.169 3°3.024 13.948292 3.936853 32.474874 13.140734
2004-05-27 07:29:44 51°25.181 3°3.058 13.942282 3.936642 32.474872 13.073315
2004-05-27 07:29:48 51°25.189 3°3.081 13.937111 3.936642 32.478099 13.005896
2004-05-27 07:29:53 51°25.198 3°3.11 13.937111 3.936642 32.478099 13.005896
2004-05-27 07:29:58 51°25.207 3°3.139 13.935874 3.936431 32.481325 12.972187
2004-05-27 07:30:04 51°25.216 3°3.175 13.933752 3.93601 32.48649 12.904768
2004-05-27 07:30:09 51°25.224 3°3.204 13.939674 3.935694 32.490042 12.837349
2004-05-27 07:30:13 51°25.229 3°3.229 13.943431 3.935378 32.49101 12.736221
2004-05-27 07:30:18 51°25.236 3°3.259 13.948336 3.935378 32.494888 12.76993
2004-05-27 07:30:24 51°25.244 3°3.295 13.948336 3.935378 32.494888 12.76993
2004-05-27 07:30:29 51°25.251 3°3.325 13.941884 3.935061 32.493918 12.904768
2004-05-27 07:30:32 51°25.254 3°3.344 13.906212 3.934956 32.493594 13.073315
2004-05-27 07:30:38 51°25.262 3°3.379 13.853134 3.935272 32.495211 13.174443
2004-05-27 07:30:44 51°25.269 3°3.416 13.805637 3.935272 32.491979 13.241862
2004-05-27 07:30:48 51°25.275 3°3.44 13.745787 3.935588 32.494889 13.34299
2004-05-27 07:30:53 51°25.281 3°3.471 13.745787 3.935588 32.494889 13.34299
2004-05-27 07:30:58 51°25.288 3°3.5 13.719544 3.935272 32.500385 13.309281
2004-05-27 07:31:03 51°25.294 3°3.53 13.677099 3.933691 32.506533 13.309281
2004-05-27 07:31:09 51°25.302 3°3.566 13.653581 3.931056 32.517885 13.241862
2004-05-27 07:31:13 51°25.308 3°3.591 13.63334 3.927895 32.527003 13.107024
2004-05-27 07:31:18 51°25.315 3°3.62 13.629167 3.925049 32.537123 12.904768
2004-05-27 07:31:23 51°25.322 3°3.65 13.629167 3.925049 32.537123 12.904768
2004-05-27 07:31:28 51°25.329 3°3.68 13.633296 3.921782 32.54533 12.601383
2004-05-27 07:31:33 51°25.336 3°3.71 13.617001 3.919041 32.544094 12.432836
2004-05-27 07:31:38 51°25.342 3°3.74 13.60239 3.916933 32.548064 12.331708
2004-05-27 07:31:44 51°25.351 3°3.775 13.598748 3.914825 32.544207 12.264289
2004-05-27 07:31:49 51°25.358 3°3.805 13.595594 3.913877 32.542601 12.196871
2004-05-27 07:31:52 51°25.362 3°3.823 13.595594 3.913877 32.542601 12.196871
2004-05-27 07:31:58 51°25.37 3°3.86 13.596483 3.912823 32.540018 12.129452
2004-05-27 07:32:02 51°25.376 3°3.883 13.591108 3.911979 32.542657 12.129452
2004-05-27 07:32:09 51°25.385 3°3.925 13.597549 3.911136 32.542028 12.163161
2004-05-27 07:32:13 51°25.391 3°3.95 13.596305 3.910609 32.544333 12.23058
2004-05-27 07:32:18 51°25.398 3°3.98 13.593906 3.909871 32.54076 12.331708
2004-05-27 07:32:24 51°25.406 3°4.016 13.593906 3.909871 32.54076 12.331708
2004-05-27 07:32:29 51°25.413 3°4.046 13.592973 3.909766 32.542398 12.365418
2004-05-27 07:32:32 51°25.418 3°4.064 13.58862 3.909344 32.538487 12.432836
2004-05-27 07:32:38 51°25.426 3°4.099 13.596083 3.90945 32.540119 12.533965
2004-05-27 07:32:42 51°25.432 3°4.124 13.590086 3.908923 32.537192 12.601383
2004-05-27 07:32:49 51°25.442 3°4.165 13.60319 3.908923 32.537846 12.601383
2004-05-27 07:32:53 51°25.448 3°4.189 13.60319 3.908923 32.537846 12.601383
2004-05-27 07:32:58 51°25.455 3°4.218 13.597771 3.908712 32.539815 12.668802
2004-05-27 07:33:04 51°25.464 3°4.254 13.599103 3.908396 32.536881 12.76993
2004-05-27 07:33:08 51°25.47 3°4.278 13.59786 3.908185 32.534925 12.736221
2004-05-27 07:33:14 51°25.478 3°4.314 13.599148 3.908185 32.532309 12.80364
2004-05-27 07:33:18 51°25.485 3°4.337 13.602657 3.908185 32.532309 12.837349
2004-05-27 07:33:24 51°25.494 3°4.373 13.602657 3.908185 32.532309 12.837349
2004-05-27 07:33:28 51°25.499 3°4.397 13.602967 3.908185 32.531002 12.972187
2004-05-27 07:33:33 51°25.507 3°4.427 13.599681 3.907974 32.528392 12.972187
2004-05-27 07:33:38 51°25.514 3°4.457 13.608031 3.908185 32.530348 13.073315
2004-05-27 07:33:44 51°25.523 3°4.493 13.608031 3.908079 32.528062 13.107024
2004-05-27 07:33:48 51°25.529 3°4.517 13.602657 3.90829 32.52871 13.107024
2004-05-27 07:33:53 51°25.536 3°4.546 13.602657 3.90829 32.52871 13.107024
2004-05-27 07:33:58 51°25.544 3°4.576 13.61145 3.907974 32.525777 13.073315
2004-05-27 07:34:04 51°25.552 3°4.612 13.609851 3.90829 32.528057 12.938477
2004-05-27 07:34:08 51°25.559 3°4.635 13.606121 3.908607 32.529682 12.871059
2004-05-27 07:34:14 51°25.568 3°4.671 13.608297 3.908501 32.529358 12.702512
2004-05-27 07:34:18 51°25.574 3°4.695 13.605455 3.908712 32.529352 12.567674
2004-05-27 07:34:24 51°25.583 3°4.73 13.605455 3.908712 32.529352 12.567674
2004-05-27 07:34:28 51°25.589 3°4.754 13.605988 3.908712 32.528698 12.399127
2004-05-27 07:34:33 51°25.597 3°4.784 13.603101 3.908923 32.531307 12.264289
2004-05-27 07:34:38 51°25.605 3°4.813 13.602657 3.909028 32.530977 12.129452
2004-05-27 07:34:42 51°25.611 3°4.837 13.606476 3.908817 32.529676 12.062033
2004-05-27 07:34:48 51°25.62 3°4.873 13.607187 3.909028 32.531631 12.028324
2004-05-27 07:34:53 51°25.629 3°4.902 13.607187 3.909028 32.531631 12.028324
2004-05-27 07:34:58 51°25.636 3°4.932 13.6039 3.908817 32.53033 11.960905
2004-05-27 07:35:04 51°25.646 3°4.968 13.601235 3.908817 32.531637 11.960905
2004-05-27 07:35:08 51°25.652 3°4.992 13.595905 3.909134 32.535224 12.129452
2004-05-27 07:35:12 51°25.659 3°5.016 13.599325 3.908501 32.528051 12.196871
2004-05-27 07:35:18 51°25.668 3°5.051 13.598126 3.907974 32.525124 12.196871
2004-05-27 07:35:23 51°25.676 3°5.081 13.598126 3.907974 32.525124 12.196871
2004-05-27 07:35:29 51°25.685 3°5.117 13.593551 3.908817 32.534906 12.23058
2004-05-27 07:35:33 51°25.691 3°5.141 13.590352 3.908396 32.530342 12.23058
2004-05-27 07:35:38 51°25.699 3°5.17 13.584533 3.908923 32.536538 12.062033
2004-05-27 07:35:43 51°25.707 3°5.2 13.576091 3.90808 32.53264 11.960905
2004-05-27 07:35:48 51°25.715 3°5.229 13.585555 3.907974 32.53297 11.927195
2004-05-27 07:35:54 51°25.724 3°5.265 13.585555 3.907974 32.53297 11.927195
2004-05-27 07:35:58 51°25.731 3°5.288 13.57027 3.907763 32.532976 11.859777
2004-05-27 07:36:03 51°25.739 3°5.318 13.562804 3.907869 32.535916 11.893486
2004-05-27 07:36:08 51°25.747 3°5.347 13.560716 3.907236 32.533319 11.960905
2004-05-27 07:36:13 51°25.755 3°5.377 13.56236 3.90692 32.534964 12.095742
2004-05-27 07:36:18 51°25.763 3°5.406 13.556671 3.906499 32.533015 12.23058
2004-05-27 07:36:24 51°25.772 3°5.441 13.556671 3.906499 32.533015 12.23058
2004-05-27 07:36:28 51°25.778 3°5.465 13.552493 3.906288 32.534984 12.331708
2004-05-27 07:36:34 51°25.788 3°5.5 13.545781 3.905866 32.536307 12.399127
2004-05-27 07:36:38 51°25.794 3°5.524 13.546137 3.905866 32.537616 12.432836
2004-05-27 07:36:44 51°25.803 3°5.559 13.547604 3.905655 32.538278 12.432836
2004-05-27 07:36:49 51°25.81 3°5.59 13.552093 3.905128 32.537313 12.466546
2004-05-27 07:36:53 51°25.817 3°5.613 13.552093 3.905128 32.537313 12.466546
2004-05-27 07:36:57 51°25.822 3°5.637 13.557827 3.905234 32.541566 12.500255
2004-05-27 07:37:04 51°25.833 3°5.678 13.562715 3.905023 32.542884 12.466546
2004-05-27 07:37:09 51°25.84 3°5.708 13.57658 3.905129 32.545173 12.432836
2004-05-27 07:37:13 51°25.847 3°5.731 13.582356 3.905339 32.54582 12.331708
2004-05-27 07:37:18 51°25.854 3°5.761 13.598126 3.905866 32.546784 12.331708
2004-05-27 07:37:23 51°25.863 3°5.79 13.598126 3.905866 32.546784 12.331708
2004-05-27 07:37:29 51°25.872 3°5.825 13.59435 3.906393 32.549058 12.297999
2004-05-27 07:37:33 51°25.879 3°5.849 13.602879 3.907342 32.551971 12.196871
2004-05-27 07:37:38 51°25.886 3°5.878 13.606476 3.908185 32.555214 12.095742
2004-05-27 07:37:44 51°25.895 3°5.914 13.616291 3.908501 32.551601 12.095742
2004-05-27 07:37:48 51°25.902 3°5.937 13.625304 3.909766 32.556139 12.028324
2004-05-27 07:37:53 51°25.909 3°5.967 13.625304 3.909766 32.556139 12.028324
2004-05-27 07:37:58 51°25.917 3°5.997 13.6293 3.910504 32.557749 11.960905
2004-05-27 07:38:03 51°25.925 3°6.026 13.638446 3.911137 32.559689 12.028324
2004-05-27 07:38:09 51°25.934 3°6.062 13.643284 3.912191 32.563578 12.028324
2004-05-27 07:38:13 51°25.94 3°6.085 13.64972 3.913034 32.564855 12.062033
2004-05-27 07:38:18 51°25.948 3°6.115 13.657265 3.914088 32.568742 12.095742
2004-05-27 07:38:24 51°25.958 3°6.15 13.657265 3.914088 32.568742 12.095742
2004-05-27 07:38:28 51°25.964 3°6.174 13.663123 3.91472 32.570027 12.163161
2004-05-27 07:38:33 51°25.972 3°6.203 13.670134 3.915458 32.570981 12.196871
2004-05-27 07:38:38 51°25.98 3°6.233 13.678031 3.916407 32.574543 12.264289
2004-05-27 07:38:42 51°25.986 3°6.256 13.685706 3.917461 32.578428 12.264289
2004-05-27 07:38:49 51°25.997 3°6.297 13.689033 3.918093 32.579058 12.331708
2004-05-27 07:38:53 51°26.003 3°6.321 13.689033 3.918093 32.579058 12.331708